Water and Atmospheric Resources Monitoring Program - , Illinois State Water Survey

Water and Atmospheric Resources Monitoring Program (WARM)

Weather Soil Groundwater Sediment Streamflow Reservoirs

#242 LaMoine (USGS #5584500)


Instantaneous Suspended Sediment Measurements

Date Time    Gage Ht. Temp Cs Qw Qs Final F
i
n
a
l
     (feet) (C) (mg/l) (cfs) (t/d)  
10/28/1980 10:40    3.66 124.00 75.8 25.4 True x
11/11/1980 12:25    3.44 58.00 60.1 9.4 True x
11/25/1980 11:25    3.40 70.00 57.3 10.8 True x
12/10/1980 16:00    10.11 231.00 1023 638.1 True x
2/5/1981 10:43    3.58  81.00 69.9 15.3 True x
3/12/1981 13:05    4.61 30.00 159.2 12.9 True x
3/31/1981 16:30    4.18 16 175.00 118.5 56.0 True x
4/1/1981 07:10    4.04 12 98.00 106.3 28.1 True x
4/2/1981 07:01    3.86 11 3.00 91.4 20.5 True x
4/3/1981 07:00    3.73 14 82.00 81.1 18.0 True x
4/4/1981 07:00    3.67 13 132.00 76.6 27.3 True x
4/5/1981 06:55    3.71 97.00 79.6 20.8 True x
4/6/1981 06:57    3.73 82.00 81.1 18.0 True x
4/7/1981 06:57    3.63 11 91.00 73.6 18.1 True x
4/8/1981 07:10    3.55 14 114.00 67.8 20.9 True x
4/9/1981 07:10    4.64 12 245.00 162.2 107.3 True x
4/10/1981 06:59    4.81 15 109.00 179.7 52.9 True x
4/11/1981 07:01    4.80 16 110.00 178.6 53.0 True x
4/11/1981 17:00    7.46 17 447.00 531.5 641.5 True x
4/12/1981 07:00    11.87 13 3,173.00 1418 12,130.0 True x
4/12/1981 16:00    14.29 12 3,522.00 2026 19,230.0 True x
4/13/1981 07:07    17.70 16 2,574.00 3008 20,870.0 True x
4/13/1981 16:18    19.15 18 2,702.00 3838 27,960.0 True x
4/14/1981 07:00    19.60 12 1,520.00 4278 17,550.0 True x
4/14/1981 16:03    19.10 18 1,854.00 3791 18,960.0 True x
4/15/1981 07:13    19.20 13 1,025.00 3885 10,750.0 True x
4/16/1981 07:12    18.56 13 555.00 3427 5,135.0 True x
4/17/1981 07:06    11.94 17 515.00 1435 1,995.0 True x
4/18/1981 07:47    9.60 16 836.00 918.6 2,073.0 True x
4/19/1981 07:19    8.44 15 424.00 697.5 798.5 True x
4/19/1981 16:52    10.43 14 2,655.00 1091 7,811.0 True x
4/20/1981 07:04    13.11 11 950.00 1720 4,411.0 True x
4/20/1981 16:55    12.16 13 777.00 1487 3,120.0 True x
4/21/1981 07:05    10.91 10 528.00 1196 1,705.0 True x
4/22/1981 07:01    10.24 11 277.00 1050 785.6 True x
4/23/1981 06:54    17.18 12 3,167.00 2853 24,350.0 True x
4/23/1981 15:26    17.86 13 2,347.00 3057 19,350.0 True x
4/24/1981 07:02    17.36 11 943.00 2906 7,399.0 True x
4/25/1981 07:40    11.13 12 453.00 1246 1,524.0 True x
4/26/1981 07:12    9.04 13 330.00 808.8 720.7 True x
4/27/1981 07:05    8.11 16 423.00 639.1 729.9 True x
4/28/1981 07:45    7.45 20 1,144.00 530 1,637.0 True x
4/29/1981 07:42    7.53 17 768.00 542.7 1,125.0 True x
4/29/1981 16:12    7.57 19 298.00 549.2 441.9 True x
4/30/1981 07:21    7.38 15 323.00 518.9 452.5 True x
5/1/1981 07:14    8.39 11 495.00 688.5 920.2 True x
5/2/1981 08:01    7.22 12 648.00 494 864.3 True x
5/3/1981 07:10    6.66 17 267.00 410.4 295.9 True x
5/4/1981 07:24    6.57 16 188.00 397.6 201.8 True x
5/5/1981 07:32    6.22 16 174.00 349.1 164.0 True x
5/6/1981 07:12    6.09 198.00 331.7 177.3 True x
5/7/1981 07:16    5.81 180.00 295.5 143.6 True x
5/9/1981 07:12    5.43 14 142.00 248.9 95.4 True x
5/10/1981 07:42    6.68 120.00 413.3 133.9 True x
5/10/1981 17:09    11.53 1,939.00 1338 6,997.0 True x
5/11/1981 07:00    14.11 1,391.00 1979 7,426.0 True x
5/12/1981 07:18    12.87 13 852.00 1660 3,818.0 True x
5/13/1981 07:13    9.10 12 329.00 820.3 728.7 True x
5/13/1981 16:30    8.60  262.00 726.5 513.9 True x
5/14/1981 07:05    11.03 3,540.00 1223 11,670.0 True x
5/14/1981 16:17    19.31 10 1,877.00 3991 20,200.0 True x
5/15/1981 07:14    19.15 1,235.00 3838 12,800.0 True x
5/15/1981 15:40    19.30 14 925.00 3981 9,943.0 True x
5/16/1981 07:36    18.85 13 561.00 3605 5,460.0 True x
5/16/1981 16:40    17.43 16 484.00 2927 3,825.0 True x
5/17/1981 07:34    13.33 15 412.00 1776 1,975.0 True x
5/17/1981 17:44    11.18 16 400.00 1257 1,358.0 True x
5/18/1981 07:03    19.23 12 1,811.00 3914 19,120.0 True x
5/18/1981 16:14    21.25 14 1,265.00 6437 21,990.0 True x
5/19/1981 07:01    21.53 11 753.00 6957 14,140.0 True x
5/19/1981 18:27    21.81 14 647.00 7506 13,110.0 True x
5/20/1981 07:00    21.55 11 521.00 6995 9,841.0 True x
5/20/1981 16:14    21.07 15 367.00 6120 6,064.0 True x
5/21/1981 07:00    19.75 12 290.00 4433 3,471.0 True x
5/21/1981 18:00    16.89 15 282.00 2766 2,106.0 True x
5/22/1981 07:25    12.85 11 295.00 1655 1,318.0 True x
5/22/1981 16:35    10.93 14 340.00 1201 1,102.0 True x
5/23/1981 07:03    9.63 12 379.00 924.7 946.2 True x
5/23/1981 18:00    9.35 14 361.00 869 847.0 True x
5/24/1981 07:57    9.94 13 402.00 987.8 1,072.0 True x
5/24/1981 17:29    8.83 16 261.00 769.1 542.0 True x
5/25/1981 07:20    8.45 12 353.00 699.3 666.5 True x
5/25/1981 18:30    8.03 15 302.00 625.2 509.8 True x
5/26/1981 07:15    7.75 12 207.00 578.4 323.3 True x
5/26/1981 16:18    7.70 16 211.00 570.2 324.8 True x
5/27/1981 07:00    10.60 11 946.00 1128 28.0 True x
5/27/1981 16:26    11.23 17 1,955.00 1254 6,612.0 True x
5/28/1981 07:00    10.13 12 2,209.00 1027 6,119.0 True x
5/28/1981 16:15    9.12 17 1,400.00 824.2 3,113.0 True x
5/29/1981 07:40    7.78 13 1,160.00 583.3 1,827.0 True x
5/29/1981 17:45    7.43 20 596.00 526.8 847.7 True x
5/30/1981 07:35    7.19 12 339.00 489.4 447.9 True x
5/30/1981 17:40    7.74 17 466.00 576.8 725.7 True x
5/31/1981 08:00    7.93 12 530.00 608.2 870.4 True x
6/1/1981 07:40    7.14 11 955.00 481.7 1,242.0 True x
6/1/1981 16:18    6.75 15 611.00 423.5 698.6 True x
6/2/1981 07:29    6.91 11 428.00 447 516.5 True x
6/2/1981 16:27    6.81 14 502.00 432.2 585.8 True x
6/3/1981 07:27    6.77 13 381.00 426.4 438.6 True x
6/3/1981 15:55    6.46 21 467.00 382.1 481.8 True x
6/4/1981 08:20    6.17 15 329.00 342.4 304.1 True x
6/4/1981 17:05    6.04 22 245.00 325.1 215.1 True x
6/5/1981 08:26    5.86 15 188.00 301.8 153.2 True x
6/5/1981 16:14    5.13 24 187.00 214.4 108.2 True x
6/6/1981 07:36    5.65 21 184.00 275.5 136.8 True x
6/6/1981 17:10    5.63 24 177.00 273 130.5 True x
6/7/1981 08:22    5.58 20 173.00 266.9 124.7 True x
6/7/1981 16:46    5.55 26 167.00 263.3 118.7 True x
6/8/1981 07:16    5.28 20 156.00 231.4 97.5 True x
6/8/1981 16:43    5.22 26 150.00 224.5 90.9 True x
6/9/1981 07:40    7.09 20 341.00 474 436.4 True x
6/9/1981 17:40    10.53 23 2,120.00 1113 6,363.0 True x
6/10/1981 07:39    9.19 20 4,161.00 837.7 9,388.0 True x
6/10/1981 16:50    7.31 24 2,269.00 508 3,108.0 True x
6/11/1981 07:45    6.30 21 835.00 359.9 811.4 True x
6/11/1981 17:40    5.67 25 529.00 277.9 396.9 True x
6/12/1981 09:33    5.46 19 467.00 252.5 318.4 True x
6/12/1981 15:50    5.44 22 435.00 250.1 293.8 True x
6/13/1981 09:36    7.90 24 870.00 603.2 1,417.0 True x
6/13/1981 17:17    11.72 24 4,164.00 1383 15,510.0 True x
6/14/1981 08:25    7.14 22 2,882.00 2841 22,070.0 True x
6/14/1981 17:16    17.28 25 2,005.00 2882 15,590.0 True x
6/15/1981 06:15    15.40 24 1,520.00 2332 9,564.0 True x
6/15/1981 16:24    12.87 25 1,385.00 1660 6,202.0 True x
6/16/1981 08:40    13.79 23 859.00 1894 4,394.0 True x
6/16/1981 16:10    13.69 23 797.00 1868 4,021.0 True x
6/17/1981 09:08    10.24 22 868.00 1050 2,462.0 True x
6/17/1981 15:45    9.33 23 795.00 865 1,857.0 True x
6/18/1981 09:55    7.81 22 508.00 588.3 806.9 True x
6/18/1981 10:00    7.83 20 513.00 591.6 819.4 True x
6/18/1981 15:50    7.51 24 442.00 539.5 643.9 True x
6/19/1981 09:30    6.98 21 318.00 457.4 392.7 True x
6/19/1981 16:30    6.86 24 293.00 439.6 347.8 True x
6/20/1981 08:20    6.59 22 248.00 400.4 268.1 True x
6/20/1981 16:52    6.87 23 261.00 441.1 310.8 True x
6/21/1981 08:20    7.30 22 848.00 506.4 1,159.0 True x
6/21/1981 17:00    6.55 23 671.00 394.8 715.2 True x
6/22/1981 09:15    16.55 21 3,418.00 2664 24,540.0 True x
6/22/1981 17:00    16.78 23 4,471.00 2733 32,900.0 True x
6/23/1981 09:20    16.37 22 3,118.00 2611 21,940.0 True x
6/23/1981 17:30    16.24 23 2,596.00 2573 18,010.0 True x
6/24/1981 07:40    16.53 23 1,664.00 2659 11,940.0 True x
6/24/1981 16:03    17.11 24 1,377.00 2832 10,520.0 True x
6/25/1981 09:30    19.49 23 3,302.00 4167 37,080.0 True x
6/25/1981 16:25    19.60 24 2,247.00 4278 25,920.0 True x
6/26/1981 08:30    19.48 25 1,400.00 4157 15,700.0 True x
6/26/1981 18:00    19.47 25 1,314.00 4147 14,700.0 True x
6/27/1981 08:35    19.16 23 1,023.00 3847 10,630.0 True x
6/27/1981 16:31    17.53 24 616.00 2957 4,918.0 True x
6/28/1981 08:48    12.71 23 891.00 1620 3,898.0 True x
6/28/1981 17:45    9.61 24 709.00 920.6 1,762.0 True x
6/29/1981 07:45    7.98 23 477.00 616.6 794.2 True x
6/29/1981 20:10    7.47 24 417.00 533.1 600.3 True x
6/30/1981 09:30    10.12 23 1,772.00 1025 4,902.0 True x
6/30/1981 15:50    9.82 25 960.00 963.3 2,497.0 True x
7/1/1981 08:35    9.40 22 954.00 878.8 2,264.0 True x
7/1/1981 09:30    7.46 23 321.00 531.5 460.7 True x
7/2/1981 09:00    7.43 23 555.00 526.8 789.4 True x
7/2/1981 15:50    7.05 24 508.00 468 641.8 True x
7/3/1981 08:10    6.93 23 396.00 450 481.1 True x
7/3/1981 17:10    6.88 26 338.00 442.5 403.9 True x
7/4/1981 09:30    19.60 20 4,347.00 4278 50,080.0 True x
7/4/1981 15:30    21.83 20 2,980.00 7548 60,630.0 True x
7/5/1981 09:20    23.53 20 1,347.00 12420 45,150.0 True x
7/5/1981 15:30    24.12 23 1,277.00 15180 52,280.0 True x
7/6/1981 09:30    24.30 22 924.00 16240 40,520.0 True x
7/6/1981 15:45    23.73 24 750.00 13270 26,880.0 True x
7/7/1981 09:40    22.36 25 392.00 8680 9,187.0 True x
7/7/1981 15:45    21.93 26 344.00 7754 7,202.0 True x
7/8/1981 08:45    19.83 26 343.00 4517 4,183.0 True x
7/8/1981 16:05    17.96 26 375.00 3088 3,126.0 True x
7/9/1981 09:30    12.49 25 462.00 1567 1,954.0 True x
7/10/1981 09:30    9.64 25 359.00 926.7 898.2 True x
7/10/1981 15:00    9.21 27 320.00 841.5 727.1 True x
7/11/1981 09:00    8.19 25 270.00 653.1 476.1 True x
7/11/1981 18:30    7.66 27 232.00 563.7 353.1 True x
7/12/1981 09:30    7.38 25 589.00 518.9 825.2 True x
7/12/1981 16:00    7.63 27 239.00 558.9 360.6 True x
7/13/1981 07:30    7.93 25 772.00 608.2 1,268.0 True x
7/13/1981 15:40    7.87 27 739.00 598.2 1,194.0 True x
7/14/1981 07:30    7.64 25 858.00 560.5 1,298.0 True x
7/14/1981 15:45    7.19 29 466.00 489.4 615.7 True x
7/15/1981 09:15    14.60 24 2,134.00 2110 12,150.0 True x
7/15/1981 15:30    15.42 24 2,049.00 2338 12,920.0 True x
7/16/1981 09:30    15.60 24 2,036.00 2388 13,110.0 True x
7/16/1981 16:00    14.63 24 1,300.00 2118 7,429.0 True x
7/17/1981 09:45    9.97 23 657.00 993.9 1,763.0 True x
7/17/1981 15:45    9.12 24 563.00 824.2 1,253.0 True x
7/18/1981 16:00    13.90 23 4,228.00 1923 21,900.0 True x
7/19/1981 09:30    18.70 23 2,304.00 3512 21,820.0 True x
7/19/1981 17:00    18.21 23 1,564.00 3220 13,590.0 True x
7/20/1981 07:40    18.19 23 992.00 3208 8,593.0 True x
7/20/1981 15:45    18.30 23 805.00 3272 7,112.0 True x
7/21/1981 07:15    18.90 23 635.00 3636 6,234.0 True x
7/22/1981 08:45    18.73 23 331.00 3531 3,155.0 True x
7/22/1981 15:15    17.22 23 331.00 2865 2,560.0 True x
7/23/1981 10:00    9.76 23 558.00 951 1,433.0 True x
7/24/1981 16:00    8.80 24 508.00 763.5 1,047.0 True x
7/25/1981 09:30    7.48 23 342.00 534.7 493.8 True x
7/26/1981 08:00    9.35 23 2,642.00 869 6,189.0 True x
7/26/1981 17:50    16.33 24 1,206.00 2600 8,465.0 True x
7/27/1981 17:00    18.64 23 1,351.00 3475 12,670.0 True x
7/28/1981 09:00    18.33 20 1,203.00 3290 10,690.0 True x
7/28/1981 17:00    18.15 20 795.00 3185 6,837.0 True x
7/29/1981 08:10    15.38 18 869.00 2326 5,458.0 True x
7/29/1981 15:30    13.97 19 482.00 1942 2,527.0 True x
8/11/1981 15:25    5.20 22 128.00 222.2 76.8 True x
8/20/1981 10:50    5.54 21 131.00 262 92.7 True x
8/26/1981 13:30    4.59 23 68.00 157.2 28.9 True x
9/2/1981 12:05    6.35 21 319.00 366.8 315.9 True x
9/24/1981 10:30    3.83 15 58.00 88.9 13.9 True x
10/13/1981 14:15    3.86 15 77.00 91.4 17.3 True x
10/20/1981 14:45    6.18 12 112.00 343.7 103.9 True x
10/27/1981 11:05    5.28 20.00 231.4 12.5 True x
11/10/1981 10:35    5.64 32.00 274.2 23.7 True x
12/8/1981 12:05    5.28 108.00 231.4 67.5 True x
2/9/1982 17:00    5.99 11.00 318.6 9.5 True x
3/3/1982 13:30    6.85 63.00 438.1 74.5 True x
3/19/1982 12:30    18.24 2,373.00 3218 20,650.0 True x
4/2/1982 10:10    7.15 11 272.00 483.2 354.9 True x
4/9/1982 12:15    8.59 185.00 724.7 362.0 True x
4/15/1982 13:30    8.03 12 157.00 625.2 268.4 True x
4/22/1982 12:40    8.91 219.00 784.1 463.7 True x
4/29/1982 11:40    6.39 12 105.00 372.3 105.6 True x
5/13/1982 13:00    4.91 19 115.00 190.3 59.1 True x
5/28/1982 11:45    7.44 18 677.00 528.4 966.2 True x
6/2/1982 13:00    5.78 18 155.00 290.4 123.1 True x
6/11/1982 12:42    6.08 19 366.00 330.4 326.6 True x
6/17/1982 12:15    5.96 19 241.00 314.7 204.8 True x
6/24/1982 12:15    4.43 21 112.00 141.6 42.8 True x
7/1/1982 12:40    4.77 20 430.00 175.5 203.8 True x
7/9/1982 13:20    8.59 23 709.00 724.7 1,388.0 True x
7/15/1982 14:00    5.22 25 310.00 224.5 185.5 True x
7/23/1982 13:21    7.93 23 304.00 608.2 499.3 True x
7/29/1982 12:41    5.99 23 203.00 318.6 174.6 True x
8/17/1982 12:06    3.85 20 122.00 90.5 29.8 True x
8/26/1982 13:45    15.17 18 743.00 2261 4,502.0 True x
9/2/1982 11:56    11.56 18 768.00 1345 2,790.0 True x
9/7/1982 12:56    5.53 18 126.00 260.8 88.7 True x
9/16/1982 12:03    4.16 16 68.00 116.7 21.4 True x
9/23/1982 12:13    5.05 11 78.00 205.5 43.3 True x
10/7/1982 12:47    5.13 15 359.00 214.4 207.8 True x
10/12/1982 10:28    4.26 10 47.00 125.8 16.0 True x
10/22/1982 11:40    4.69 56.00 167.3 25.3 True x
10/29/1982 12:30    4.16 51.00 116.7 16.1 True x
11/3/1982 12:14    8.43 15 507.00 695.7 952.6 True x
11/18/1982 11:32    6.77 14 43.00 426.4 49.5 True x
11/23/1982 12:09    5.98 18 41.00 317.3 35.1 True x
12/3/1982 12:22    23.45 16 856.00 9959 23,030.0 True x
12/9/1982 12:30    12.24 13 175.00 1507 711.9 True x
12/28/1982 12:48    18.30 14 618.00 3249 5,423.0 True x
1/6/1983 12:32    7.57 10 44.00 549.2 65.2 True x
2/16/1983 12:26    14.15 525.00 1988 2,818.0 True x
2/21/1983 12:33    8.63 101.00 732 199.6 True x
3/1/1983 13:45    6.38 42.00 370.9 42.1 True x
3/31/1983 12:03    9.52 130.00 902.6 316.8 True x
4/22/1983 11:39    7.91 10 85.00 604.9 138.8 True x
4/29/1983 12:01    6.96 15 56.00 454.4 68.7 True x
5/12/1983 13:00    6.25 17 89.00 353.2 84.9 True x
5/19/1983 12:58    5.81 14 177.00 295.4 141.2 True x
5/26/1983 12:14    5.15 18 47.00 216.6 27.5 True x
6/16/1983 12:12    4.72 22 158.00 170.4 72.7 True x
6/30/1983 13:26    4.28 27 164.00 127.6 56.5 True x
7/7/1983 11:45    3.52 23 74.00 65.6 13.1 True x
7/21/1983 11:32    2.75 30 42.00 20.6 2.3 True x
7/28/1983 12:05    2.51 28 103.00 10.9 3.0 True x
8/10/1983 11:46    2.43 27 111.00 7.8 2.3 True x
8/18/1983 12:09    2.20 28 121.00 1.4 0.5 True x
9/2/1983 13:29    2.16 26 71.00 1.4 0.3 True x
9/8/1983 13:42    2.33 23 48.00 4.6 0.6 True x
11/9/1983 11:39    2.98 10 110.00 32 9.0 True x
12/15/1983 12:15    8.87 84.00 777 176.0 True x
2/16/1984 11:30    7.25 111.00 499 149.0 True x
3/1/1984 17:45    5.36 79.00 241 51.0 True x
3/14/1984 16:45    5.00 58.00 200 31.0 True x
3/23/1984 13:00    14.19 888.00 2000 4,795.0 True x
3/26/1984 17:45    14.08 401.00 1971 2,134.0 True x
4/3/1984 14:05    7.51 97.00 539 141.0 True x
4/12/1984 14:30    8.61 14 150.00 728 295.0 True x
4/16/1984 17:20    8.03 10 72.00 625 122.0 True x
4/26/1984 18:45    9.45 17 154.00 889 370.0 True x
5/1/1984 13:00    18.51 18 997.00 3397 9,144.0 True x
5/14/1984 18:00    8.18 19 370.00 651 651.0 True x
5/24/1984 12:30    16.11 18 488.00 2532 3,336.0 True x
5/29/1984 17:45    8.44 14 139.00 697 262.0 True x
6/5/1984 13:00    6.08 23 112.00 330 100.0 True x
6/12/1984 08:00    12.38 23 365.00 1541 1,519.0 True x
6/20/1984 16:30    5.84 26 167.00 299 135.0 True x
6/26/1984 17:30    8.96 24 450.00 794 964.0 True x
7/5/1984 14:00    4.64 24 141.00 162 62.0 True x
7/13/1984 11:45    4.24 26 216.00 124 72.0 True x
7/26/1984 13:00    11.12 22 3,842.00 1244 12,904.0 True x
7/30/1984 13:30    4.22 24 165.00 122 54.0 True x
8/15/1984 11:00    2.61 25 26.00 15 1.0 True x
8/27/1984 10:45    2.37 23 73.00 1.0 True x
9/13/1984 12:00    3.06 24 258.00 36 25.0 True x
9/20/1984 14:30    2.29 21 48.00 0.0 True x
9/25/1984 10:30    2.52 20 71.00 11 2.0 True x
10/2/1984 11:45    2.30 12 52.00 1.0 True x
10/11/1984 12:00    2.58 18 92.00 13 3.0 True x
10/18/1984 11:45    4.55 14 195.00 153 81.0 True x
10/24/1984 12:15    3.44 64.00 60 10.0 True x
10/29/1984 10:30    3.94 11 82.00 98 22.0 True x
11/8/1984 12:00    5.38 43.00 243 28.0 True x
11/13/1984 12:00    5.40 42.00 245 28.0 True x
11/19/1984 12:15    4.45 26.00 143 10.0 True x
11/28/1984 11:30    6.81 158.00 432 184.0 True x
12/10/1984 12:15    4.35 81.00 134 29.0 True x
12/17/1984 11:15    7.44 127.00 528 181.0 True x
12/27/1984 11:15    6.34 35.00 365 34.0 True x
1/11/1985 12:00    6.39 28.00 372 28.0 True x
1/17/1985 11:45    5.72 48.00 284 37.0 True x
2/25/1985 09:14    23.04  544.00 11180 16,421.0 True x
3/4/1985 09:10    24.25  1,942.00 17340 90,921.0 True x
3/11/1985 11:59    19.81  2,249.00 4115 24,987.0 True x
3/12/1985 14:00    21.37 1,073.00 6295 18,237.0 True x
3/18/1985 11:59    8.98  163.00 765 337.0 True x
3/25/1985 12:01    7.21  50.00 486 66.0 True x
4/1/1985 12:24    8.34  159.00 657 282.0 True x
4/8/1985 13:35    6.46  33.00 381 34.0 True x
4/15/1985 14:10    5.86  758.00 304 622.0 True x
4/23/1985 12:49    5.39 22 143.00 244 94.0 True x
4/24/1985 13:15    5.19 20 227.00 221 135.0 True x
4/30/1985 12:06    4.89 20 75.00 188 38.0 True x
5/6/1985 15:15    6.57 19 96.00 395 102.0 True x
5/13/1985 13:37    5.57 20 359.00 266 258.0 True x
5/20/1985 15:13    6.61 20 168.00 401 182.0 True x
5/29/1985 08:08    6.25 17 181.00 354 173.0 True x
6/3/1985 15:16    4.14 24 72.00 114 22.0 True x
6/4/1985 13:35    4.70 19 82.00 168 37.0 True x
6/10/1985 14:59    4.29 24 52.00 128 18.0 True x
6/18/1985 11:21    4.32 20 157.00 130 55.0 True x
6/24/1985 16:11    4.19 25 156.00 119 50.0 True x
7/1/1985 16:09    3.76 24 94.00 83 21.0 True x
7/8/1985 17:51    3.52 23 85.00 65 15.0 True x
7/15/1985 10:43    3.39 23 150.00 56 23.0 True x
7/22/1985 11:03    3.14 24 172.00 40 19.0 True x
7/24/1985 14:00    3.23 27 100.00 45 12.0 True x
7/29/1985 12:15    3.12 25 82.00 39 9.0 True x
8/5/1985 08:51    2.95 20 74.00 30 6.0 True x
8/15/1985 11:47    7.62 20 2,649.00 546 3,905.0 True x
8/26/1985 08:05    2.68 17 104.00 17 5.0 True x
8/29/1985 13:00    2.65 22 93.00 16 4.0 True x
9/16/1985 12:15    2.32 18 98.00 2.0 True x
9/23/1985 12:03    3.18 16 91.00 42 10.0 True x
9/29/1985 17:45    2.08 16 60.00 0.0 True x
10/7/1985 12:15    2.89 12 80.00 27 6.0 True x
10/9/1985 13:20    3.02 14 91.00 34 8.0 True x
10/14/1985 14:12    4.10 14 219.00 111 66.0 True x
10/21/1985 12:38    5.13 15 155.00 214 90.0 True x
10/28/1985 08:11    3.86 10 111.00 91 27.0 True x
11/4/1985 12:07    6.77 109.00 423 124.0 True x
11/11/1985 15:45    16.88 402.00 2463 2,673.0 True x
11/17/1985 13:10    19.97 291.00 4287 3,368.0 True x
11/18/1985 13:30    20.00 10 381.00 4320 4,444.0 True x
11/25/1985 11:56    4.68 94.00 166 42.0 True x
12/2/1985 12:20    20.86 325.00 5442 4,775.0 True x
12/9/1985 12:30    7.80 77.00 573 119.0 True x
1/20/1986 11:46    7.97 179.00 599 289.0 True x
3/4/1986 13:00    15.71 920.00 2141 5,318.0 True x
3/10/1986 07:50    7.68 119.00 555 178.0 True x
3/17/1986 08:10    7.18 66.00 482 86.0 True x
3/24/1986 15:35    6.36 83.00 368 82.0 True x
3/31/1986 14:50    5.40 19 93.00 245 61.0 True x
4/6/1986 10:25    4.92 18 307.00 191 158.0 True x
4/13/1986 12:44    4.00 11 107.00 103 30.0 True x
4/20/1986 12:00    4.36 10 117.00 134 42.0 True x
4/27/1986 15:05    4.14 21 117.00 114 36.0 True x
5/1/1986 13:10    4.81 18 269.00 179 130.0 True x
5/4/1986 10:00    4.25 19 54.00 124 18.0 True x
5/11/1986 10:08    5.61 17 517.00 271 378.0 True x
5/18/1986 10:36    19.13 15 1,707.00 3551 16,366.0 True x
5/25/1986 07:00    5.45 17 216.00 251 146.0 True x
6/1/1986 10:05    5.95 20 363.00 316 310.0 True x
6/8/1986 07:00    22.43 19 629.00 8937 15,178.0 True x
6/15/1986 10:00    7.31 19 352.00 501 476.0 True x
6/16/1986 12:45    8.15 23 560.00 627 948.0 True x
6/22/1986 07:01    5.00 18 166.00 200 90.0 True x
6/29/1986 07:00    10.81 22 5,425.00 1097 16,068.0 True x
7/6/1986 19:00    16.15 24 597.00 2244 3,617.0 True x
7/14/1986 17:00    10.50 24 183.00 1038 513.0 True x
7/20/1986 19:55    11.20 23 262.00 1174 830.0 True x
7/27/1986 20:00    6.20 23 90.00 347 84.0 True x
7/29/1986 13:10    6.42 25 4,543.00 376 4,612.0 True x
8/3/1986 07:00    4.13 22 129.00 114 40.0 True x
8/11/1986 12:05    3.74 22 134.00 81 29.0 True x
8/18/1986 14:35    3.37 23 79.00 54 11.0 True x
8/25/1986 15:00    3.05 24 200.00 35 19.0 True x
9/1/1986 15:00    2.75 20 90.00 20 5.0 True x
9/7/1986 17:31    2.67 18 82.00 17 4.0 True x
9/14/1986 12:10    3.04 18 147.00 35 14.0 True x
9/15/1986 13:45    3.10 21 113.00 38 12.0 True x
9/21/1986 15:40    6.18 20 553.00 345 515.0 True x
9/27/1986 15:00    6.14 22 219.00 340 201.0 True x
10/5/1986 12:00    25.19 18 213.00 23940 13,767.9 True x
10/12/1986 15:00    8.67 12 111.00 711.8 213.3 True x
10/26/1986 17:15    20.50 10 345.00 4900 4,564.4 True x
10/29/1986 13:50    11.91 14 164.00 1321 584.9 True x
11/1/1986 15:44    8.51 60.00 685 111.0 True x
11/9/1986 13:30    6.82 56.00 429.7 65.0 True x
11/16/1986 15:00    6.52 25.00 388.7 26.2 True x
11/23/1986 10:00    6.05 26.00 329 23.1 True x
12/18/1986 14:00    7.10 35.00 470 44.4 True x
12/18/1986 14:32    7.11 27.00 471.5 34.4 True x
12/21/1986 15:00    6.42 21.00 375.6 21.3 True x
1/3/1987 16:00    5.15 26.00 216.2 15.2 True x
1/13/1987 11:00    5.36  85.00 240.1 55.1 True x
2/7/1987 15:00    5.64 77.00 274.5 57.1 True x
2/17/1987 13:00    5.72  82.00 284.9 63.1 True x
2/18/1987 13:30    4.93 103.00 192.1 53.4 True x
2/28/1987 16:00    5.60 88.00 269.4 64.0 True x
3/2/1987 15:00    5.55 65.00 263.1 46.2 True x
3/8/1987 12:30    5.60 207.00 269.4 150.6 True x
3/15/1987 13:00    5.53 298.00 260.7 209.8 True x
3/22/1987 14:30    7.85 444.00 580.4 695.8 True x
4/1/1987 13:10    9.07 176.00 781.4 371.3 True x
4/1/1987 13:40    9.04 185.00 776.1 387.7 True x
4/5/1987 10:15    6.89 145.00 439.6 172.1 True x
4/13/1987 17:37    7.60 539.00 543.1 790.4 True x
4/22/1987 18:18    6.75 13 221.00 419.9 250.6 True x
4/28/1987 06:39    5.81 11 209.00 296.8 167.5 True x
5/5/1987 18:40    5.38 12 126.00 242.5 82.5 True x
5/12/1987 06:45    4.59 15 195.00 156.6 82.4 True x
5/14/1987 13:50    4.35 23 54.00 133.3 19.4 True x
5/21/1987 06:37    4.61 20 715.00 158.6 306.2 True x
5/28/1987 16:25    4.95 18 222.00 194.3 116.5 True x
7/1/1987 10:20    3.10 22 121.00 38 12.4 True x
7/1/1987 10:50    3.10 23 100.00 38 10.3 True x
7/18/1987 17:05    3.03 25 257.00 34.4 23.9 True x
7/26/1987 12:10    2.53  115.00 11.4 3.5 True x
8/4/1987 17:00    2.36 32 101.00 7.8 2.1 True x
8/17/1987 13:55    3.89 28 211.00 93.3 53.1 True x
8/18/1987 16:10    3.04 223.00 34.9 21.0 True x
8/25/1987 15:30    2.34  56.00 7.5 1.1 True x
9/4/1987 17:00    2.24 77.00 5.9 1.2 True x
9/8/1987 16:30    2.24 91.00 5.9 1.5 True x
9/17/1987 17:30    8.95 1,198.00 760.2 2,458.9 True x
9/26/1987 07:50    2.60 61.00 13.8 2.3 True x
9/30/1987 17:30    2.76 99.00 20.4 5.5 True x
10/1/1987 10:45    3.29 15 56.00 49.1 7.4 True x
10/1/1987 11:35    2.94 18 37.00 29.4 2.9 True x
3/22/1988 15:30    3.55 14 1,538.00 67.3 279.6 True x
3/24/1988 11:30    3.59 14 104.00 70.1 19.7 True x
3/24/1988 12:00    3.66 14 87.00 75.1 17.6 True x
5/4/1988 11:45    3.48 18 58.00 62.4 9.8 True x
5/4/1988 12:05    3.48 18 70.00 62.4 11.8 True x
4/21/1992 16:04    11.05 13 1,144.00 661 2,041.6 True x
11/4/1992 15:14    7.83 97.00 577.4 152.5 True x
11/4/1992 15:35    7.82 91.00 575.9 142.8 True x
11/4/1992 16:30    7.78 98.00 569.8 152.3 True x
11/7/1992 13:45    6.42 12 45.00 375.6 46.2 True x
11/16/1992 21:30    7.56  61.00 537.2 88.9 True x
11/27/1992 16:00    14.88  200.00 1971 1,067.6 True x
11/30/1992 14:00    5.70  58.00 282.3 44.5 True x
12/7/1992 16:00    3.21  106.00 44.1 12.6 True x
12/17/1992 11:29    22.99 262.00 11150 7,902.0 True x
12/18/1992 11:33    21.91 120.00 7444 2,430.5 True x
12/18/1992 12:27    21.81  132.00 7164 2,561.0 True x
12/26/1992 12:30    7.95 24.00 595.7 38.6 True x
1/3/1993 14:15    8.31 10 114.00 652.4 201.4 True x
1/11/1993 21:30    7.97 11 31.00 598.8 50.9 True x
1/19/1993 15:00    7.65 23.00 550.5 35.2 True x
1/27/1993 13:00    9.46 113.00 852.5 261.8 True x
2/7/1993 15:00    7.67 31.00 553.4 47.5 True x
2/19/1993 15:00    7.55 53.00 535.8 77.3 True x
2/23/1993 13:30    7.75 62.00 565.3 95.4 True x
2/27/1993 13:00    7.60 10 36.00 543.1 53.2 True x
3/12/1993 13:00    7.60  51.00 543.1 75.1 True x
3/17/1993 12:00    8.60  64.00 700 121.0 True x
3/25/1993 14:00    15.40 252.00 2079 1,417.0 True x
3/31/1993 14:00    9.39 302.00 839.5 684.6 True x
8/3/1993 11:25    7.80 23 153.00 572.8 237.6 True x
8/12/1993 17:30    9.32 25 482.00 826.6 1,075.8 True x
8/20/1993 12:20    7.12 26 625.00 472.9 799.1 True x
9/10/1993 14:00    2.16 26 229.00 4.7 2.9 True x
9/17/1993 18:00    15.50 27 274.00 2099 1,558.2 True x
9/24/1993 14:00    5.10 20 22.00 210.7 12.6 True x
9/30/1993 15:00    3.10 15 19.00 38 2.0 True x
10/4/1993 14:00    7.12 18 21.00 472.9 27.4 True x
10/6/1993 11:15    6.65 15 160.00 406.2 175.8 True x
10/6/1993 11:45    6.64 15 68.00 404.8 75.1 True x
11/4/1993 13:00    2.30 32.00 6.9 0.6 True x
11/12/1993 13:00    3.00 24.00 33 2.2 True x
11/17/1993 11:33    6.77 26.00 422.7 29.9 True x
11/17/1993 12:23    6.77 23.00 422.7 26.3 True x
11/17/1993 13:00    6.77 10 40.00 422.7 45.7 True x
11/27/1993 13:00    4.10 10 31.00 111.1 9.5 True x
11/28/1993 15:00    2.00 14.00 2.6 0.1 True x
12/3/1993 14:00    7.04 66.00 461.2 83.4 True x
12/9/1993 14:00    8.00 74.00 603.4 121.8 True x
12/13/1993 11:00    8.17 22.00 630 38.4 True x
3/30/1994 11:00    5.16 59.00 217.3 35.0 True x
3/30/1994 11:29    5.17 90.00 218.4 53.2 True x
5/11/1994 13:30    9.10 17 196.00 786.8 417.5 True x
5/11/1994 14:13    9.06 17 200.00 779.7 421.4 True x
9/1/1994 11:05    3.18 20 84.00 42.4 9.6 True x
9/1/1994 11:30    3.17 20 86.00 41.8 9.8 True x
10/12/1994 11:50    2.53 12 37.00 11.4 1.2 True x
10/12/1994 12:25    2.54 13 47.00 11.7 1.5 True x
11/2/1994 14:21    3.54 10 74.00 66.6 13.5 True x
11/2/1994 14:45    3.53 10 48.00 66 8.7 True x
11/3/1994 10:46    3.70 11 79.00 78 16.8 True x
11/12/1994 08:45    3.00 54.00 33 4.9 True x
11/20/1994 14:45    2.80 36.00 22.2 2.2 True x
12/1/1994 15:00    3.70 164.00 78 34.6 True x
12/7/1994 13:30    17.24 1,434.00 2591 10,034.3 True x
12/12/1994 13:00    4.50 52.00 148 21.0 True x
12/21/1994 14:21    4.39 23.00 137.1 8.7 True x
12/28/1994 16:30    3.78 61.00 84.2 14.0 True x
2/23/1995 12:30    10.10 330.00 964.1 860.0 True x
3/4/1995 15:00    6.53 65.00 390 68.7 True x
3/7/1995 14:17    7.95 130.00 595.7 209.6 True x
3/7/1995 14:55    7.95 132.00 595.7 213.6 True x
3/11/1995 17:00    6.42 57.00 375.6 58.1 True x
3/18/1995 15:00    5.57 15 50.00 265.6 36.2 True x
3/27/1995 17:00    5.66 10 72.00 277.1 54.0 True x
4/2/1995 15:30    4.90 10 65.00 188.8 33.2 True x
4/9/1995 14:30    15.95 10 1,963.00 2190 11,611.6 True x
4/15/1995 17:00    11.81 14 290.00 1300 1,020.4 True x
4/19/1995 12:18    18.23 14 480.00 2986 3,872.5 True x
4/19/1995 12:49    18.15 14 466.00 2953 3,717.9 True x
4/23/1995 12:30    8.09 12 110.00 617.4 184.9 True x
5/1/1995 11:00    7.30 12 79.00 500 107.9 True x
5/7/1995 15:00    6.15 18 49.00 341.3 45.5 True x
5/14/1995 15:00    17.90 18 1,125.00 2851 8,661.8 True x
5/21/1995 13:00    18.84 16 157.00 3338 1,422.9 True x
5/28/1995 18:45    21.04 16 293.00 5731 4,547.0 True x
6/5/1995 19:40    8.21 20 137.00 636.4 236.8 True x
6/7/1995 15:48    7.61 22 127.00 544.6 188.1 True x
6/7/1995 16:20    7.62 22 124.00 546 183.8 True x
6/11/1995 17:30    6.87 19 103.00 436.7 121.8 True x
6/18/1995 17:30    5.39 26 66.00 243.7 43.5 True x
6/25/1995 17:15    5.40 25 219.00 244.9 145.0 True x
7/2/1995 17:30    6.05 23 131.00 329 116.5 True x
7/9/1995 15:30    7.65 24 180.00 550.5 267.8 True x
7/16/1995 12:50    5.11 29 246.00 211.8 141.1 True x
7/19/1995 12:48    4.69 26 174.00 166.6 78.5 True x
7/19/1995 13:16    4.69 26 120.00 166.6 54.0 True x
7/23/1995 10:00    4.97 25 117.00 196.6 62.3 True x
7/30/1995 09:30    4.04 27 72.00 106.2 20.8 True x
8/6/1995 12:30    4.08 26 441.00 109.5 130.6 True x
8/13/1995 12:15    5.93 28 182.00 313.2 154.4 True x
8/20/1995 15:30    4.24 28 230.00 123.2 76.5 True x
8/27/1995 15:00    3.38 29 526.00 55.1 78.3 True x
9/1/1995 12:48    3.07 26 84.00 36.4 8.3 True x
9/1/1995 13:14    3.07 26 111.00 36.4 11.0 True x
9/4/1995 18:25    2.94 25 102.00 29.4 8.2 True x
9/10/1995 15:15    3.20 20 82.00 43.6 9.7 True x
9/17/1995 19:00    2.85 20 415.00 24.6 27.6 True x
9/24/1995 16:50    2.91 14 87.00 27.7 6.5 True x
10/1/1995 17:45    9.67 19 1,605.00 888.9 3,853.0 True x
10/8/1995 17:30    3.17 14 971.00 41.8 109.7 True x
10/15/1995 16:30    2.91 14 1,142.00 27.7 85.5 True x
10/22/1995 15:00    2.35 12 99.00 7.7 2.1 True x
10/29/1995 14:15    3.07 11 19.00 36.4 2.0 True x
11/5/1995 15:30    5.32 41.00 235.4 26.6 True x
11/13/1995 13:45    5.73 101.00 286.2 78.7 True x
11/19/1995 16:55    4.50 13.00 148 5.4 True x
11/26/1995 15:00    4.04 52.00 106.2 15.1 True x
11/30/1995 12:48    3.70 78.00 78 16.6 True x
1/22/1996 14:10    7.27 205.00 495.4 274.4 True x
2/14/1996 14:00    5.65 45.00 275.8 33.9 True x
2/27/1996 12:40    6.75 727.00 419.9 824.3 True x
3/5/1996 13:15    10.30 3,969.00 1000 10,717.4 True x
3/12/1996 16:45    5.02 72.00 202.1 39.7 True x
3/18/1996 12:55    4.96 49.00 195.5 25.9 True x
3/18/1996 13:18    4.95 42.00 194.3 22.1 True x
3/20/1996 17:45    4.65 67.00 162.5 29.7 True x
3/27/1996 17:45    4.69 53.00 166.6 23.9 True x
4/3/1996 13:15    5.00 14 42.00 200 22.9 True x
4/9/1996 13:45    4.35 10 50.00 133.3 18.1 True x
4/16/1996 12:55    8.49 10 675.00 681.7 1,243.4 True x
4/22/1996 19:15    4.36 15 111.00 134.3 40.3 True x
4/29/1996 17:15    5.31 11 108.00 234.3 68.7 True x
5/6/1996 17:35    7.28 14 321.00 497 431.7 True x
5/9/1996 12:00    23.15 17 1,289.00 11820 41,155.7 True x
5/9/1996 12:42    23.16 17 1,280.00 11860 41,002.8 True x
5/13/1996 14:15    17.72 14 376.00 2778 2,827.2 True x
5/20/1996 18:20    7.29 20 184.00 498.5 247.8 True x
5/27/1996 16:30    23.10 14 1,009.00 11610 31,635.6 True x
6/3/1996 13:20    16.94 19 970.00 2481 6,498.3 True x
6/11/1996 18:35    9.21 18 234.00 806.6 509.6 True x
6/17/1996 14:30    7.43 25 310.00 518.5 434.8 True x
6/24/1996 12:34    8.96 25 1,099.00 762 2,261.3 True x
6/24/1996 14:30    8.57 25 621.00 695 1,165.6 True x
7/1/1996 19:30    4.12 28 82.00 112.8 25.0 True x
7/7/1996 19:30    4.16 26 269.00 116.2 84.5 True x
7/14/1996 18:40    4.15 22 239.00 115.4 74.7 True x
7/21/1996 19:35    21.30 21 1,314.00 6171 21,899.0 True x
7/28/1996 19:00    5.71 24 122.00 283.6 94.0 True x
8/4/1996 17:45    4.36 23 57.00 134.3 20.9 True x
8/11/1996 14:00    3.75 24 40.00 81.8 9.0 True x
8/18/1996 15:35    3.53 23 53.00 66 9.4 True x
8/26/1996 16:00    3.43 25 82.00 58.7 13.0 True x
9/1/1996 10:00    3.08 22 65.00 37 6.5 True x
9/3/1996 12:10    2.97 24 90.00 31.2 7.6 True x
9/3/1996 12:24    2.98 25 251.00 31.8 21.6 True x
9/8/1996 14:30    2.86 23 901.00 25.1 61.0 True x
9/15/1996 10:00    2.83 16 509.00 23.6 32.5 True x
9/22/1996 13:00    2.64 17 649.00 15.4 27.0 True x
9/29/1996 16:15    3.49 16 933.00 63.2 159.3 True x
10/6/1996 17:30    2.66 16 236.00 16.2 10.3 True x
10/13/1996 13:00    2.80 15 428.00 22.2 25.6 True x
10/15/1996 12:11    2.74 17 56.00 19.6 3.0 True x
10/15/1996 12:27    2.73 17 32.00 19.2 1.7 True x
10/20/1996 18:45    2.68 14 416.00 17.1 19.2 True x
10/27/1996 16:00    3.00 15 385.00 33 34.3 True x
11/3/1996 11:40    2.77 206.00 20.9 11.6 True x
11/10/1996 16:20    3.25 1,870.00 46.6 235.0 True x
11/17/1996 15:00    2.90 1,256.00 27.2 92.1 True x
11/24/1996 11:30    2.96 1,083.00 30.6 89.4 True x
12/1/1996 16:10    3.23 2,482.00 45.3 303.9 True x
12/3/1996 15:45    3.92 191.00 95.9 49.6 True x
12/8/1996 16:05    3.10 354.00 38 36.3 True x
12/11/1996 12:43    3.07 278.00 36.4 27.4 True x
12/15/1996 16:08    3.08 456.00 37 45.5 True x
1/5/1997 11:00    3.30 462.00 49.7 62.1 True x
2/19/1997 17:15    5.35 74.00 238.9 47.9 True x
3/2/1997 10:30    15.25 413.00 2049 2,289.5 True x
3/3/1997 13:03    12.17 259.00 1377 966.5 True x
3/3/1997 13:23    12.20 240.00 1384 899.5 True x
3/9/1997 15:15    11.42 1,541.00 1219 5,071.9 True x
3/16/1997 12:30    6.75 75.00 419.9 85.6 True x
3/23/1997 13:00    5.86 11 68.00 303.6 56.3 True x
3/30/1997 10:00    6.33 11 56.00 363.9 56.0 True x
4/6/1997 14:00    5.95 14 76.00 316 65.0 True x
4/13/1997 16:15    18.08 376.00 2924 2,972.8 True x
4/20/1997 09:15    8.10 12 281.00 619 469.6 True x
4/21/1997 12:05    7.68 12 80.00 554.9 120.1 True x
4/21/1997 12:30    7.68 12 88.00 554.9 132.5 True x
4/27/1997 13:00    5.00 14 39.00 200 21.4 True x
5/4/1997 15:00    11.58 13 489.00 1252 1,653.3 True x
5/11/1997 18:15    6.50 16 103.00 386.1 107.4 True x
5/25/1997 14:05    4.97 17 69.00 196.6 36.9 True x
6/1/1997 17:00    7.43 19 169.00 518.5 237.5 True x
6/4/1997 11:40    6.35 19 126.00 366.5 125.5 True x
6/4/1997 11:54    6.35 19 133.00 366.5 132.1 True x
6/8/1997 16:00    9.36 18 1,184.00 834 2,668.0 True x
6/15/1997 15:25    15.53 20 437.00 2105 2,486.2 True x
6/22/1997 14:00    7.57 23 244.00 538.7 355.2 True x
6/29/1997 11:00    5.56 25 136.00 264.4 97.3 True x
7/6/1997 16:00    4.80 24 446.00 178 214.5 True x
7/13/1997 15:45    3.00 27 68.00 33 6.1 True x
7/20/1997 16:30    3.40 28 35.00 56.5 5.4 True x
7/22/1997 12:24    4.05 27 106.00 107 30.9 True x
7/22/1997 12:39    4.05 27 152.00 107 43.9 True x
7/27/1997 12:00    3.30 30 72.00 49.7 9.8 True x
8/3/1997 10:45    2.82 25 60.00 23.1 3.7 True x
8/10/1997 09:45    2.62 22 83.00 14.6 3.3 True x
8/17/1997 11:45    3.06 26 124.00 35.9 12.0 True x
8/24/1997 12:30    2.75 22 93.00 20 5.1 True x
8/31/1997 14:10    4.22 23 305.00 121.4 100.1 True x
9/7/1997 14:15    2.96 21 78.00 30.6 6.5 True x
9/9/1997 11:30    4.55 21 237.00 152.7 97.7 True x
9/9/1997 11:42    4.55 22 259.00 152.7 107.1 True x
9/14/1997 15:00    2.85 20 132.00 24.6 8.8 True x
9/21/1997 11:30    2.95 19 85.00 30 6.9 True x
9/28/1997 10:30    2.73 18 77.00 19.2 4.0 True x
10/5/1997 10:25    2.83 19 49.00 23.6 3.1 True x
10/12/1997 13:40    2.81 20 53.00 22.7 3.3 True x
10/19/1997 10:00    2.80 14 71.00 22.2 4.3 True x
10/25/1997 09:30    2.95 41.00 30 3.4 True x
11/2/1997 16:15    3.00 10 30.00 33 2.8 True x
11/9/1997 09:50    3.71 32.00 78.8 6.9 True x
11/15/1997 16:00    3.10 273.00 38 28.1 True x
11/23/1997 13:20    3.10 87.00 38 8.9 True x
11/30/1997 14:15    5.25 100.00 227.4 61.9 True x
12/5/1997 15:00    4.23 205.00 122.3 68.0 True x
12/14/1997 15:14    3.54 8.00 66.6 1.6 True x
12/21/1997 09:30    4.30 15.00 128.7 5.5 True x
12/23/1997 11:53    4.06 159.00 107.8 46.5 True x
12/23/1997 12:10    4.06  109.00 107.8 31.9 True x
12/27/1997 15:15    4.76 78.00 173.8 36.9 True x
1/3/1998 13:15    5.97 78.00 318.8 67.2 True x
1/11/1998 13:45    8.11 92.00 620.6 155.2 True x
2/2/1998 13:50    9.36 309.00 834 695.9 True x
2/3/1998 11:24    8.86 159.00 744.5 320.6 True x
2/3/1998 11:49    8.85  159.00 742.7 320.8 True x
2/8/1998 12:25    6.35 35.00 366.5 35.0 True x
2/15/1998 15:00    9.40 205.00 841.4 467.6 True x
2/22/1998 11:00    7.84 111.00 578.9 174.1 True x
3/1/1998 12:45    15.30 655.00 2059 3,642.0 True x
3/8/1998 14:00    13.88 1,512.00 1736 7,091.1 True x
3/15/1998 13:30    10.87 147.00 1109 440.3 True x
3/16/1998 13:19    9.62 97.00 880.4 230.9 True x
3/16/1998 13:40    9.61  88.00 878.7 211.0 True x
3/22/1998 10:30    12.13 258.00 1369 955.1 True x
3/29/1998 17:30    8.00 15 130.00 603.4 213.1 True x
4/5/1998 15:45    11.60 10 222.00 1256 753.1 True x
4/12/1998 12:30    10.21 13 166.00 983.8 441.5 True x
4/20/1998 18:20    8.45 14 103.00 675.2 188.6 True x
4/26/1998 10:50    7.39 17 92.00 512.7 127.7 True x
5/3/1998 11:10    20.41 14 264.00 4791 3,426.7 True x
5/8/1998 12:58    9.80 17 165.00 911.4 408.2 True x
5/8/1998 13:19    9.78  172.00 907.9 422.6 True x
5/10/1998 10:25    8.21 17 117.00 636.4 202.7 True x
5/16/1998 15:30    7.96 20 191.00 597.2 308.5 True x
5/24/1998 19:40    19.50 18 2,155.00 3838 22,341.1 True x
5/31/1998 10:25    8.34 22 214.00 657.2 380.4 True x
6/7/1998 16:00    6.08 14 64.00 332.7 57.8 True x
6/14/1998 11:35    8.81 21 635.00 735.8 1,262.0 True x
6/21/1998 11:30    11.38 22 336.00 1211 1,099.2 True x
6/25/1998 13:41    8.66 25 189.00 710.1 363.0 True x
6/25/1998 13:59    8.65  181.00 708.4 346.9 True x
6/28/1998 14:30    6.98 28 135.00 452.5 165.9 True x
7/5/1998 18:00    7.13 24 182.00 474.4 234.3 True x
7/12/1998 11:10    6.88 25 285.00 438.2 337.5 True x
7/19/1998 10:30    5.14 25 107.00 215.1 62.2 True x
7/26/1998 16:50    4.20 25 113.00 119.7 36.7 True x
8/2/1998 11:00    3.64 24 69.00 73.6 13.7 True x
8/3/1998 13:14    3.52 25 428.00 65.3 75.5 True x
8/9/1998 10:15    3.93 25 107.00 96.7 28.1 True x
8/16/1998 16:04    3.15 26 59.00 40.7 6.5 True x
8/23/1998 18:00    2.90 24 70.00 27.2 5.1 True x
8/30/1998 16:00    2.95 25 128.00 30 10.4 True x
9/6/1998 12:00    2.77 26 80.00 20.9 4.5 True x
9/13/1998 11:00    3.17 24 71.00 41.8 8.0 True x
9/20/1998 11:00    2.92 23 93.00 28.3 7.1 True x
9/21/1998 11:40    2.83 21 114.00 23.6 7.3 True x
9/21/1998 11:50    2.83 21 80.00 23.6 5.1 True x
9/26/1998 18:00    2.83 22 162.00 23.6 10.4 True x
10/4/1998 13:50    3.17 15 57.00 41.8 6.5 True x
10/11/1998 12:10    3.83 14 56.00 88.2 13.4 True x
10/18/1998 15:25    13.39 16 1,409.00 1627 6,190.3 True x
10/25/1998 15:55    4.73 12 35.00 170.7 16.3 True x
11/1/1998 11:50    4.61 14 26.00 158.6 11.5 True x
11/4/1998 11:54    11.94 187.00 1328 673.6 True x
11/4/1998 12:04    11.89 191.00 1317 682.4 True x
11/8/1998 12:20    6.57 25.00 395.4 27.6 True x
11/15/1998 11:55    8.25 10 95.00 642.8 166.4 True x
11/21/1998 16:30    5.82 17.00 298.1 14.1 True x
11/28/1998 11:00    5.21 26.00 222.8 16.2 True x
12/6/1998 11:15    5.20 13 34.00 221.7 20.9 True x
12/10/1998 13:06    8.36 69.00 660.5 123.9 True x
12/10/1998 13:22    8.35 69.00 658.9 123.0 True x
12/13/1998 12:15    6.86 26.00 435.3 30.6 True x
12/20/1998 08:45    5.69 10.00 281 8.1 True x
1/26/1999 16:20    17.78 264.00 2802 2,004.3 True x
2/1/1999 16:20    13.78 298.00 1713 1,382.3 True x
2/3/1999 11:23    13.35 212.00 1619 926.9 True x
2/3/1999 11:38    13.33 210.00 1615 916.4 True x
2/7/1999 11:30    8.78 93.00 730.6 184.6 True x
2/14/1999 10:00    7.45 98.00 521.3 138.1 True x
2/21/1999 10:30    6.15 21.00 341.3 19.6 True x
2/28/1999 12:11    7.18 15 66.00 481.9 86.1 True x
3/7/1999 11:30    6.04 18.00 327.8 16.3 True x
3/14/1999 09:30    6.65 21.00 406.2 23.3 True x
3/18/1999 11:30    9.68 162.00 890.6 391.0 True x
3/18/1999 11:43    9.66 161.00 887.2 387.5 True x
3/21/1999 10:30    6.76 29.00 421.3 34.1 True x
3/28/1999 11:20    5.59 24.00 268.2 17.5 True x
4/4/1999 12:10    7.98 18 380.00 600.3 617.2 True x
4/11/1999 10:50    9.43 11 511.00 846.9 1,168.7 True x
4/18/1999 10:20    20.25 284.00 4603 3,541.4 True x
4/25/1999 12:35    9.34 13 190.00 830.3 426.9 True x
4/26/1999 12:37    8.59 14 108.00 698.3 205.3 True x
4/26/1999 12:50    8.58 14 109.00 696.7 205.3 True x
5/2/1999 10:30    8.94 15 157.00 758.4 322.6 True x
5/9/1999 13:20    6.78 15 78.00 424.1 89.5 True x
5/16/1999 11:30    9.38 18 247.00 837.7 560.5 True x
5/23/1999 18:00    7.38 19 197.00 511.3 273.0 True x
5/30/1999 15:15    5.62 22 102.00 272 75.2 True x
6/6/1999 16:35    8.31 24 538.00 652.4 949.2 True x
6/9/1999 11:39    7.37 27 289.00 509.9 399.0 True x
6/9/1999 11:54    7.61 27 337.00 544.6 496.0 True x
6/13/1999 17:30    7.34 24 244.00 505.6 333.2 True x
6/20/1999 11:15    5.47 21 99.00 253.3 67.8 True x
6/27/1999 11:00    4.73 25 81.00 170.7 37.6 True x
7/4/1999 17:20    5.23 28 1,032.00 225.1 627.2 True x
7/13/1999 08:20    3.80 23 79.00 85.8 18.3 True x
7/19/1999 17:30    3.33 30 58.00 51.7 8.2 True x
7/20/1999 12:40    3.27 30 74.00 47.8 9.6 True x
7/25/1999 17:15    4.29 32 285.00 127.8 98.6 True x
8/1/1999 16:20    3.99 28 90.00 102.1 25.0 True x
8/8/1999 12:30    3.34 25 44.00 52.3 6.3 True x
8/15/1999 14:45    3.38 24 52.00 55.1 7.8 True x
8/22/1999 14:45    2.83 25 68.00 23.6 4.4 True x
8/29/1999 17:11    2.72 27 65.00 18.8 3.3 True x
9/5/1999 11:30    2.50 24 100.00 10.5 2.8 True x
9/12/1999 17:00    2.44 20 64.00 9.3 1.6 True x
9/19/1999 15:15    2.39 18 96.00 8.4 2.2 True x
9/26/1999 17:00    2.34 19 52.00 7.5 1.1 True x
10/3/1999 16:15    4.13 12 94.00 118.4 30.2 True x
10/10/1999 14:15    3.63 18 112.00 76 23.0 True x
10/17/1999 15:45    3.17 13 17.00 43.8 2.1 True x
10/24/1999 16:20    2.96 10.00 31.6 0.9 True x
10/31/1999 13:00    2.97 16 27.00 32.1 2.4 True x
11/6/1999 16:00    2.88 11 111.00 27.3 8.3 True x
11/21/1999 16:20    2.89 23.00 27.9 1.8 True x
11/29/1999 13:45    2.88 50.00 27.3 3.7 True x
12/5/1999 12:15    3.26 32.00 49.6 4.3 True x
12/12/1999 10:45    4.42 40.00 146.4 16.0 True x
12/19/1999 14:20    3.70 7.00 81.5 1.8 True x
1/2/2000 16:00    3.74 15.00 84.7 3.4 True x
1/9/2000 12:40    3.67 7.00 79.1 1.6 True x
1/16/2000 17:00    3.69 5.00 80.7 1.2 True x
2/11/2000 16:55    3.67 9.00 79.1 2.1 True x
2/15/2000 13:03    3.63 46.00 76 9.5 True x
2/15/2000 13:13    3.63  74.00 76 15.3 True x
2/19/2000 12:30    5.25 103.00 238.7 66.4 True x
2/26/2000 14:30    12.07 11 2,150.00 1504 8,733.0 True x
3/4/2000 10:45    6.45 111.00 402 121.2 True x
3/11/2000 16:30    4.91 40.00 198.7 21.6 True x
3/18/2000 16:05    4.89 38.00 196.5 20.7 True x
3/21/2000 12:47    6.29 86.00 378.3 88.8 True x
3/21/2000 13:03    6.28  86.00 376.9 88.4 True x
3/25/2000 18:00    5.65 15 101.00 292 80.0 True x
4/1/2000 17:15    4.73 13 52.00 178.8 25.2 True x
4/8/2000 18:00    4.37 12 27.00 141.4 10.4 True x
4/16/2000 11:00    4.11 17 48.00 116.6 15.4 True x
4/24/2000 12:10    4.85 16 116.00 192 60.4 True x
4/29/2000 19:00    4.24 19 80.00 128.7 28.1 True x
5/7/2000 13:20    3.84 23 71.00 92.9 17.9 True x
5/11/2000 12:38    5.91 19 233.00 324.4 204.8 True x
5/11/2000 12:52    5.90  232.00 323 203.0 True x
5/13/2000 17:40    5.01 19 1,696.00 210.2 962.9 True x
5/21/2000 17:30    3.91 20 522.00 98.8 139.5 True x
5/27/2000 09:00    4.16 18 182.00 121.2 59.7 True x
6/3/2000 19:00    4.13 23 108.00 118.4 34.7 True x
6/10/2000 17:00    4.16 26 122.00 121.2 40.0 True x
6/17/2000 17:51    6.63 20 305.00 429.4 354.2 True x
6/22/2000 12:24    9.32 23 381.00 925.3 953.5 True x
6/22/2000 12:42    9.30  369.00 921.1 918.0 True x
6/24/2000 17:20    14.65 22 2,042.00 2022 11,153.4 True x
7/1/2000 06:40    8.07 21 262.00 673.3 477.5 True x
7/8/2000 19:15    8.73 25 298.00 803.8 648.5 True x
7/15/2000 18:55    6.92 26 216.00 474.9 278.1 True x
7/21/2000 13:20    5.22 22 84.00 235.1 53.3 True x
7/30/2000 13:15    4.10 24 44.00 115.7 13.9 True x
8/1/2000 12:34    4.28 26 103.00 132.6 37.0 True x
8/1/2000 12:45    4.28  101.00 132.6 36.3 True x
8/5/2000 17:00    3.71 25 50.00 82.3 11.2 True x
8/12/2000 19:30    3.32 26 36.00 53.6 5.3 True x
8/19/2000 18:00    2.90 23 36.00 28.4 2.8 True x
8/27/2000 13:00    2.79 24 42.00 22.9 2.6 True x
9/2/2000 17:00    2.59 28 50.00 14.1 1.9 True x
9/9/2000 18:00    2.48 24 77.00 10 2.1 True x
9/16/2000 18:00    2.59 18 52.00 14.1 2.0 True x
9/23/2000 18:00    2.66 18 69.00 17 3.2 True x
10/1/2000 16:50    2.80 18 45.00 23.3 2.8 True x
10/7/2000 16:00    3.97 11 35.00 104 10.0 True x
10/14/2000 17:45    3.05 16 39.00 36.6 3.9 True x
10/17/2000 12:07    3.03 13 17.00 35.5 1.6 True x
10/17/2000 12:18    3.03  14.00 35.5 1.4 True x
10/22/2000 15:50    2.95 15 16.00 31 1.4 True x
10/29/2000 10:15    3.06 14 15.00 37.2 1.5 True x
11/5/2000 11:25    3.00 11 56.00 33.8 5.2 True x
11/12/2000 15:15    4.44 22.00 148.4 8.9 True x
11/18/2000 15:10    3.67 9.00 79.1 2.1 True x
11/26/2000 13:35    3.57 40.00 71.4 7.8 True x
12/3/2000 14:25    3.28 33.00 50.9 4.6 True x
12/10/2000 11:15    3.38 42.00 57.7 6.6 True x
1/13/2001 16:35    19.55 304.00 3878 3,185.4 True x
2/7/2001 12:15    8.18 266.00 694.4 499.9 True x
2/14/2001 12:28    11.67 239.00 1420 917.4 True x
2/14/2001 12:38    11.67  220.00 1420 844.1 True x
2/14/2001 17:05    11.97 271.00 1484 1,086.8 True x
2/27/2001 17:20    19.05 316.00 3492 2,982.2 True x
3/6/2001 14:05    7.28 77.00 533.9 111.6 True x
3/12/2001 17:15    6.28 33.00 376.9 34.3 True x
3/19/2001 16:45    10.70 218.00 1216 716.9 True x
3/21/2001 11:51    8.84 106.00 826.5 238.4 True x
3/21/2001 12:10    8.83  107.00 824.4 238.3 True x
3/25/2001 17:45    6.84 46.00 462.1 58.6 True x
4/1/2001 16:50    6.08 76.00 348.1 72.1 True x
4/7/2001 18:20    7.92 17 400.00 645.5 697.4 True x
4/14/2001 16:25    8.54 16 206.00 765.3 426.8 True x
4/21/2001 17:30    6.40 18 142.00 394.6 151.6 True x
4/28/2001 13:55    5.99 18 68.00 335.5 61.6 True x
5/2/2001 11:57    5.40 22 28.00 257.3 19.8 True x
5/2/2001 12:09    5.40  29.00 257.3 20.4 True x
5/6/2001 17:50    5.25 21 55.00 238.7 35.9 True x
5/12/2001 17:10    8.13 20 401.00 684.7 741.9 True x
5/20/2001 07:25    9.89 19 333.00 1046 941.1 True x
5/27/2001 10:30    10.30 15 210.00 1132 643.5 True x
6/3/2001 14:50    7.50 15 352.00 571.3 543.9 True x
6/9/2001 13:40    11.92 20 315.00 1473 1,255.1 True x
6/16/2001 18:35    8.02 23 305.00 663.8 547.6 True x
6/21/2001 12:17    8.74 19 897.00 805.9 1,952.3 True x
6/21/2001 12:33    8.77  670.00 812.1 1,470.8 True x
6/23/2001 17:30    8.40 20 271.00 737.3 540.5 True x
6/30/2001 14:00    5.28 26 100.00 242.4 65.7 True x
7/7/2001 16:25    4.48 27 57.00 152.4 23.5 True x
7/14/2001 16:45    3.77 27 48.00 87.1 11.4 True x
7/21/2001 19:00    4.92 27 195.00 199.9 105.5 True x
7/28/2001 18:15    3.44 27 57.00 61.9 9.6 True x
8/4/2001 19:30    6.54 26 889.00 415.6 997.8 True x
8/7/2001 11:56    3.46 29 110.00 63.3 18.8 True x
8/7/2001 12:08    3.46  105.00 63.3 18.0 True x
8/12/2001 16:40    3.09 26 45.00 39 4.8 True x
8/18/2001 16:20    2.99 24 77.00 33.2 6.9 True x
8/28/2001 16:05    4.52 26 123.00 156.5 52.2 True x
9/3/2001 12:35    3.50 24 68.00 66.2 12.2 True x
9/9/2001 15:00    3.27 22 65.00 50.2 8.9 True x
9/15/2001 17:15    3.00 19 33.00 33.8 3.1 True x
9/20/2001 12:25    4.51 20 203.00 155.5 85.5 True x
9/20/2001 12:37    4.51  199.00 155.5 83.8 True x
9/23/2001 11:40    3.68 20 116.00 79.9 25.2 True x
9/29/2001 16:00    3.04 16 19.00 36.1 1.9 True x
10/8/2001 18:30    3.60 14 32.00 73.7 6.4 True x
10/14/2001 16:30    6.22 15 205.00 368.1 204.2 True x
10/20/2001 15:30    4.62 12 33.00 167 15.0 True x
10/27/2001 15:15    6.50 65.00 409.5 72.6 True x
11/3/2001 15:15    4.75 14 27.00 180.9 13.6 True x
11/6/2001 11:49    4.37 11 16.00 141.4 6.4 True x
11/6/2001 11:59    4.36  37.00 140.4 14.3 True x
11/10/2001 14:00    4.15 10 50.00 120.3 16.4 True x
11/17/2001 16:05    3.95 14 64.00 102.3 17.9 True x
11/25/2001 13:05    8.77 12 297.00 812.1 652.4 True x
12/2/2001 07:55    5.31 17.00 246.1 11.6 True x
12/8/2001 16:45    4.45 38.00 149.4 15.7 True x
12/15/2001 12:10    5.64 40.00 288.1 31.2 True x
12/18/2001 11:40    5.28 29.00 242.4 19.6 True x
12/18/2001 11:48    5.28  20.00 242.4 13.7 True x
12/23/2001 15:00    7.22 348.00 523.9 492.4 True x
12/29/2001 12:20    5.65 31.00 289.4 24.5 True x
1/5/2002 11:30    4.64 85.00 169.1 39.2 True x
1/12/2002 15:55    4.63 46.00 168 21.2 True x
1/19/2002 12:45    4.29 59.00 133.6 21.4 True x
1/26/2002 14:45    4.06 37.00 112 11.4 True x
2/2/2002 15:30    10.89 248.00 1256 843.4 True x
2/6/2002 12:19    6.88 55.00 468.5 70.0 True x
2/6/2002 12:34    6.84  103.00 462.1 129.0 True x
2/9/2002 16:30    7.04 69.00 494.2 93.1 True x
2/16/2002 15:40    7.26 74.00 530.5 107.2 True x
2/23/2002 16:00    7.01 100.00 489.4 132.3 True x
3/2/2002 10:45    6.28 49.00 376.9 50.9 True x
3/9/2002 16:40    11.27 494.00 1336 1,784.1 True x
3/17/2002 15:40    6.05 38.00 343.9 35.4 True x
3/20/2002 12:04    5.85 41.00 316.2 35.3 True x
3/20/2002 12:16    5.85  29.00 316.2 25.4 True x
3/23/2002 15:30    5.18 45.00 230.2 28.2 True x
3/31/2002 14:50    5.57 19.00 278.9 14.6 True x
4/6/2002 15:50    4.85 10 18.00 192 9.7 True x
4/13/2002 17:15    7.00 15 159.00 487.8 210.0 True x
4/20/2002 17:10    5.85 19 91.00 316.2 78.4 True x
4/27/2002 17:25    15.35 11 1,785.00 2155 10,388.0 True x
5/4/2002 15:45    8.88 16 203.00 834.8 458.4 True x
5/10/2002 12:40    12.15 17 387.00 1521 1,592.0 True x
5/10/2002 12:55    12.10  392.00 1511 1,600.7 True x
5/11/2002 17:00    21.68 13 2,688.00 6960 50,523.1 True x
5/18/2002 14:35    12.12 14 187.00 1515 765.4 True x
5/25/2002 15:45    14.17 16 801.00 1932 4,180.1 True x
6/1/2002 15:03    9.58 23 573.00 979.6 1,516.4 True x
6/8/2002 16:45    7.46 22 173.00 564.4 264.1 True x
6/15/2002 13:40    23.92 22 243.00 15570 10,251.0 True x
6/20/2002 12:26    8.47 25 174.00 751.2 354.4 True x
6/22/2002 13:50    7.33 25 111.00 542.3 163.9 True x
6/29/2002 18:40    5.72 26 70.00 298.7 57.1 True x
7/6/2002 15:10    4.75 29 109.00 180.9 53.6 True x
7/13/2002 13:05    4.24 23 70.00 128.7 24.5 True x
7/20/2002 18:05    7.78 26 774.00 620.3 1,297.7 True x
7/27/2002 18:00    3.80 26 75.00 89.6 18.2 True x
8/3/2002 16:50    3.12 29 87.00 40.8 9.6 True x
8/6/2002 12:57    2.94 30 84.00 30.5 6.9 True x
8/11/2002 14:00    2.82 26 91.00 24.3 6.0 True x
8/18/2002 19:20    3.66 24 227.00 78.3 48.1 True x
8/24/2002 18:20    18.33 23 554.00 3032 4,540.8 True x
8/31/2002 14:33    4.45 24 74.00 149.4 30.0 True x
9/7/2002 13:10    3.29 23 113.00 51.6 15.7 True x
9/14/2002 15:40    2.98 21 96.00 32.7 8.5 True x
9/17/2002 11:59    2.89 20 464.00 27.9 34.9 True x
9/22/2002 15:00    3.00 21 62.00 33.8 5.7 True x
9/28/2002 16:00    2.75 18 68.00 21 3.9 True x
10/6/2002 15:45    3.06 18 39.00 37.22 4.0 True x
10/13/2002 13:45    2.70 13 67.00 18.7 3.4 True x
10/19/2002 17:15    2.67 12 54.00 17.39 2.6 True x
10/26/2002 12:25    2.80 10 149.00 23.33 9.4 True x
11/3/2002 09:20    2.88 27.00 27.33 2.0 True x
11/7/2002 12:09    2.90 50.00 28.37 3.9 True x
11/12/2002 12:20    3.01 27.00 34.35 2.6 True x
11/17/2002 16:20    2.87 34.00 26.82 2.5 True x
11/23/2002 15:00    2.85 25.00 25.8 1.7 True x
11/30/2002 14:20    2.83 37.00 24.8 2.5 True x
12/14/2002 16:15    2.85 87.00 25.8 6.1 True x
12/19/2002 12:06    4.06 144.00 112 43.6 True x
12/19/2002 12:16    4.07  51.00 112.9 15.6 True x
12/23/2002 13:05    3.26 26.00 49.57 3.6 True x
12/31/2002 14:55    3.05 104.00 36.64 10.3 True x
1/8/2003 13:35    3.11 182.00 40.17 19.7 True x
3/13/2003 17:20    5.62 106.00 285.5 81.7 True x
3/18/2003 12:09    4.55 136.00 159.6 58.8 True x
3/18/2003 12:20    4.55  35.00 159.6 15.5 True x
3/18/2003 17:10    4.54 42.00 158.6 18.0 True x
3/24/2003 11:40    3.71 13 52.00 82.27 11.7 True x
3/30/2003 12:45    4.03 13.00 109.4 4.1 True x
4/5/2003 17:30    4.15 11 47.00 120.3 15.4 True x
4/12/2003 17:00    4.04 15 355.00 110.2 105.9 True x
4/19/2003 16:05    4.52 15 166.00 156.5 70.2 True x
4/22/2003 12:56    4.28 14 38.00 132.6 13.8 True x
4/22/2003 13:03    4.28  67.00 132.6 24.3 True x
4/27/2003 18:15    5.18 17 284.00 230.2 176.6 True x
5/3/2003 16:20    5.79 18 61.00 308 51.0 True x
5/10/2003 12:15    7.71 19 472.00 607.9 776.1 True x
5/17/2003 16:50    5.97 19 145.00 332.7 130.3 True x
5/25/2003 09:45    4.61 17 106.00 165.9 47.8 True x
6/2/2003 10:05    3.99 17 73.00 105.8 21.0 True x
6/3/2003 12:02    3.96 11 55.00 103.2 15.4 True x
6/11/2003 17:45    4.66 23 130.00 171.2 60.1 True x
6/17/2003 16:00    3.70 26 203.00 81.47 44.8 True x
6/23/2003 18:10    3.33 25 78.00 54.22 11.5 True x
6/29/2003 16:45    4.71 25 192.00 176.6 91.7 True x
7/5/2003 15:10    3.10 29 115.00 39.57 12.3 True x
7/7/2003 13:50    3.33 32 357.00 54.22 52.4 True x
7/7/2003 14:00    3.33  318.00 54.22 46.7 True x
7/12/2003 18:10    7.86 24 261.00 634.7 447.4 True x
7/20/2003 17:25    5.40 26 233.00 257.3 162.4 True x
7/26/2003 09:10    3.35 24 147.00 55.58 22.1 True x
8/2/2003 10:30    2.93 24 95.00 29.96 7.7 True x
8/9/2003 13:55    2.58 25 56.00 13.69 2.1 True x
8/17/2003 16:30    2.40 29 28.00 0.6 True x
8/24/2003 16:15    2.25 27 59.00 5.75 0.9 True x
9/1/2003 15:30    8.68 19 696.00 793.6 1,491.5 True x
9/7/2003 13:50    2.61 22 90.00 14.88 3.6 True x
9/13/2003 18:20    2.47 22 66.00 9.75 1.8 True x
9/19/2003 17:40    2.55 20 54.00 12.53 1.8 True x
9/27/2003 18:20    2.91 15 59.00 28.89 4.6 True x
10/5/2003 18:40    2.43 15 28.00 8.7 0.7 True x
10/7/2003 11:51    2.40 18 82.00 1.8 True x
10/12/2003 11:30    2.35 17 49.00 7.2 1.0 True x
10/20/2003 16:50    2.83 17 71.00 24.8 4.8 True x
10/26/2003 15:08    3.37 10 47.00 57 7.3 True x
11/1/2003 16:30    3.02 12 50.00 34.9 4.8 True x
11/8/2003 16:05    5.07 40.00 217.2 23.9 True x
11/15/2003 15:45    3.60 29.00 73.7 5.9 True x
11/19/2003 12:38    13.29 13 260.00 1757 1,238.0 True x
11/19/2003 12:52    13.21  255.00 1742 1,200.9 True x
11/22/2003 15:40    6.01 10 72.00 338.3 66.0 True x
11/29/2003 16:03    4.36 13.00 140.4 5.2 True x
12/7/2003 15:00    4.03 19.00 109.4 5.8 True x
12/14/2003 14:20    10.86 228.00 1250 772.8 True x
12/20/2003 16:30    6.85 42.00 463.7 53.7 True x
12/23/2003 11:45    10.00 178.00 1070 515.4 True x
12/23/2003 11:58    10.03  165.00 1076 479.9 True x
12/27/2003 15:30    6.56 30.00 418.6 34.7 True x
1/3/2004 14:30    6.30 37.00 379.8 38.3 True x
1/13/2004 13:15    5.32 22.00 247.3 14.8 True x
1/19/2004 16:15    4.60 25.00 164.9 11.5 True x
2/23/2004 16:40    6.35 78.00 387.1 82.2 True x
2/29/2004 16:20    4.80 17.00 186.4 8.8 True x
3/7/2004 16:35    8.56 230.00 769.3 478.6 True x
3/8/2004 12:01    7.47 104.00 566.1 160.1 True x
3/8/2004 12:18    7.46  101.00 564.4 154.3 True x
3/20/2004 17:15    5.02 11 31.00 211.3 18.0 True x
3/27/2004 17:00    6.34 15 77.00 385.7 80.3 True x
3/31/2004 15:40    5.35 27.00 251 18.3 True x
4/4/2004 12:40    5.38 11 36.00 254.8 25.3 True x
4/10/2004 14:25    4.68 14 42.00 173.4 19.9 True x
4/17/2004 16:15    4.28 21 54.00 132.6 19.4 True x
4/21/2004 14:05    4.81 20 87.00 187.5 44.2 True x
4/21/2004 14:16    4.81  76.00 187.5 38.5 True x
4/25/2004 17:20    4.78 15 55.00 184.2 27.6 True x
5/2/2004 18:20    4.91 15 73.00 198.7 39.4 True x
5/8/2004 17:40    4.17 22 85.00 122.1 28.2 True x
5/15/2004 18:00    4.29 18 70.00 133.6 25.3 True x
5/22/2004 18:20    3.78 25 71.00 87.9 17.0 True x
5/29/2004 16:20    5.65 22 191.00 289.4 149.6 True x
6/5/2004 18:30    6.07 21 202.00 346.7 189.8 True x
6/12/2004 17:05    9.40 24 358.00 941.9 911.8 True x
6/17/2004 13:39    5.86 26 177.00 317.5 152.0 True x
6/17/2004 13:54    5.86  161.00 317.5 138.2 True x
6/19/2004 18:30    5.05 22 191.00 214.8 111.1 True x
6/26/2004 19:05    4.16 22 117.00 121.2 38.3 True x
7/4/2004 16:50    5.22 25 207.00 235.1 131.8 True x
7/10/2004 18:00    8.52 23 5,328.00 761.2 10,951.2 True x
7/17/2004 18:25    3.75 25 267.00 85.5 61.7 True x
7/21/2004 11:19    3.31 30 125.00 52.9 18.0 True x
7/21/2004 11:29    3.31  103.00 52.9 14.7 True x
7/24/2004 18:35    3.15 22 64.00 42.6 7.5 True x
8/1/2004 18:58    2.72 25 46.00 19.6 2.4 True x
8/8/2004 19:55    2.60 24 63.00 14.5 2.5 True x
8/15/2004 18:25    2.33 23 57.00 6.9 1.1 True x
8/21/2004 17:25    2.89 24 66.00 27.9 5.0 True x
8/28/2004 17:20    16.58 24 328.00 2424 2,147.8 True x
9/2/2004 11:29    3.44 25 86.00 61.9 14.4 True x
9/2/2004 11:39    3.44  84.00 61.9 14.0 True x
9/4/2004 15:00    3.06 26 61.00 37.2 6.2 True x
9/11/2004 14:05    2.55 24 52.00 12.5 1.8 True x
9/18/2004 18:45    6.38 23 232.00 391.6 246.2 True x
9/25/2004 17:05    3.60 22 49.00 73.7 9.8 True x
10/3/2004 12:30    3.40 15 34.00 59 5.5 True x
10/9/2004 17:30    8.84 18 427.00 826.5 954.3 True x
10/13/2004 11:13    5.23 15 73.00 236.3 46.8 True x
10/13/2004 11:24    5.23  73.00 236.3 47.1 True x
10/16/2004 17:40    5.54 12 47.00 275.1 35.6 True x
10/23/2004 15:45    17.03 18 987.00 2541 6,772.3 True x
10/31/2004 13:39    11.25 17 175.00 1332 631.5 True x
11/6/2004 15:30    13.71 13 184.00 1842 916.4 True x
11/13/2004 15:40    7.79 55.00 622.1 93.8 True x
11/20/2004 15:45    7.35 13 73.00 545.7 108.0 True x
11/28/2004 13:30    17.60 461.00 2751 3,425.8 True x
12/5/2004 13:15    8.88 61.00 834.8 138.8 True x
12/12/2004 13:10    9.98 108.00 1066 311.1 True x
12/18/2004 14:50    7.39 39.00 552.5 58.3 True x
1/1/2005 13:40    6.40 26.00 394.6 28.2 True x
1/9/2005 14:30    8.90 110.00 839 251.0 True x
1/15/2005 11:25    20.54 189.00 4960 2,534.7 True x
1/23/2005 14:45    6.75 50.00 448 60.8 True x
1/30/2005 15:45    6.11 38.00 352.4 36.7 True x
2/6/2005 13:20    5.93 30.00 327.1 26.7 True x
2/13/2005 13:30    12.48 3,302.00 1590 14,177.6 True x
2/19/2005 14:05    7.01 98.00 489.4 130.3 True x
2/26/2005 16:30    6.87 46.00 466.9 59.1 True x
3/5/2005 17:30    6.13 26.00 355.2 25.6 True x
3/13/2005 10:25    5.54 19.00 275.1 14.2 True x
3/16/2005 12:12    5.13 19.00 224.3 11.6 True x
3/16/2005 12:24    5.13  28.00 224.3 17.5 True x
3/20/2005 15:50    5.14 14.00 225.5 9.1 True x
3/27/2005 13:10    7.81 69.00 625.7 116.8 True x
4/2/2005 12:30    5.76 14 20.00 304 17.2 True x
4/9/2005 16:45    5.37 18 28.00 253.5 19.6 True x
4/16/2005 14:20    7.75 17 86.00 615 143.8 True x
4/24/2005 18:20    17.38 13 468.00 2669 3,375.8 True x
4/25/2005 13:40    11.96 13 327.00 1481 1,307.8 True x
4/25/2005 13:55    11.94  340.00 1477 1,359.5 True x
4/30/2005 14:00    7.34 14 92.00 544 135.8 True x
5/7/2005 17:50    5.90 20 50.00 323 44.2 True x
5/15/2005 13:20    7.97 18 356.00 654.5 629.2 True x
5/21/2005 17:55    6.15 20 154.00 358.1 149.0 True x
5/28/2005 18:50    4.88 22 78.00 195.3 41.1 True x
6/5/2005 17:10    4.64 26 96.00 169.1 44.2 True x
6/10/2005 12:52    5.33 28 162.00 248.5 108.8 True x
6/10/2005 13:03    5.35  194.00 251 131.6 True x
6/11/2005 18:30    5.00 27 728.00 209 411.0 True x
6/18/2005 18:30    3.96 27 79.00 103.2 22.2 True x
6/25/2005 15:25    3.53 31 50.00 68.4 9.4 True x
7/3/2005 16:20    3.08 28 44.00 38.4 4.6 True x
7/9/2005 16:45    2.80 29 29.00 23.3 1.9 True x
7/16/2005 18:10    2.53 30 229.00 11.8 7.3 True x
7/19/2005 12:34    2.37 30 36.00 7.5 0.7 True x
7/19/2005 12:45    2.37  34.00 7.5 0.7 True x
7/23/2005 18:50    2.22 33 68.00 5.3 1.0 True x
7/30/2005 16:30    2.67 29 65.00 17.4 3.1 True x
8/7/2005 12:30    2.10 29 85.00 3.8 0.9 True x
8/13/2005 14:45    2.07 26 58.00 3.4 0.5 True x
8/20/2005 17:00    3.50 28 609.00 66.2 108.9 True x
8/25/2005 11:25    2.21 20 60.00 5.2 0.9 True x
8/27/2005 15:50    2.07 28 43.00 3.4 0.4 True x
9/4/2005 18:45    1.95 27 45.00 2.1 0.2 True x
9/10/2005 17:55    2.85 27 122.00 25.8 8.5 True x
9/17/2005 19:05    2.42 22 51.00 8.5 1.2 True x
9/26/2005 11:20    2.40 23 63.00 1.4 True x
10/2/2005 18:00    2.66 20 67.00 17 3.1 True x
10/8/2005 16:15    2.30 16 51.00 6.4 0.9 True x
10/11/2005 13:35    2.24 11 37.00 5.6 0.6 True x
10/16/2005 16:50    2.12 18 40.00 4.1 0.5 True x
10/23/2005 15:00    2.90 13 45.00 28.4 3.5 True x
10/29/2005 16:10    2.52 13 48.00 11.4 1.5 True x
11/5/2005 13:35    3.00 15 21.00 33.8 2.0 True x
11/12/2005 12:30    3.02 13 16.00 34.9 1.6 True x
11/19/2005 14:00    3.15 9.00 42.6 1.1 True x
11/23/2005 11:57    3.16 11.00 43.2 1.4 True x
11/23/2005 12:08    3.15  11.00 42.6 1.3 True x
11/26/2005 16:30    3.11 13.00 40.2 1.4 True x
12/3/2005 14:00    3.40 9.00 59 1.5 True x
12/31/2005 14:15    3.27 16.00 50.2 2.2 True x
1/7/2006 15:25    3.30 7.00 52.2 1.1 True x
1/11/2006 11:49    3.20 31.00 45.7 3.9 True x
1/11/2006 12:00    3.20  13.00 45.7 1.7 True x
1/14/2006 16:55    3.33 10.00 54.2 1.6 True x
1/22/2006 15:25    4.05 36.00 111 11.0 True x
1/29/2006 12:45    8.07 484.00 673 880.9 True x
2/4/2006 15:50    3.55 22.00 69.9 4.3 True x
2/11/2006 16:20    3.15 13.00 42.6 1.5 True x
2/15/2006 12:26    3.29 24.00 51.5 3.5 True x
2/15/2006 12:36    3.30  20.00 52.2 2.9 True x
2/25/2006 17:20    3.10 36.00 39.6 3.9 True x
3/7/2006 16:00    3.50 14.00 66.2 2.6 True x
3/12/2006 15:55    7.35 12 1,162.00 546 1,713.4 True x
3/19/2006 16:45    4.00 10 37.00 107 10.8 True x
3/23/2006 12:43    4.04 45.00 110 13.4 True x
3/25/2006 16:00    4.42 15.00 146 6.2 True x
4/1/2006 16:40    11.23  677.00 1330 2,432.2 True x
4/8/2006 15:45    15.75 15 877.00 2230 5,283.6 True x
4/15/2006 14:00    6.37 22 151.00 390 159.4 True x
4/22/2006 15:30    4.94 20 96.00 202 52.8 True x
4/30/2006 14:20    5.25 18 85.00 239 54.9 True x
5/6/2006 18:00    5.28 18 86.00 242 56.4 True x
5/8/2006 12:47    5.02 17 72.00 211 41.3 True x
5/8/2006 12:58    5.03  107.00 213 61.8 True x
5/13/2006 15:15    4.54 14 40.00 159 17.3 True x
5/20/2006 18:05    4.14 20 60.00 119 19.4 True x
5/27/2006 16:35    3.82 27 62.00 91.2 15.5 True x
6/3/2006 16:40    7.60 24 416.00 589 661.9 True x
6/10/2006 16:30    4.36 22 128.00 140 48.7 True x
6/17/2006 15:30    3.60 28 153.00 73.7 30.6 True x
6/19/2006 13:29    3.45 27 82.00 62.6 13.9 True x
6/19/2006 13:39    3.45  74.00 62.6 12.6 True x
6/25/2006 18:30    3.60 28 81.00 73.7 16.2 True x
7/1/2006 18:15    3.03 27 57.00 35.5 5.5 True x
7/9/2006 19:00    2.65 32 46.00 16.5 2.1 True x
7/15/2006 18:05    2.83 26 49.00 24.8 3.3 True x
7/23/2006 18:30    2.25 24 44.00 5.8 0.7 True x
7/30/2006 16:30    2.41 27 67.00 8.2 1.5 True x
8/5/2006 13:30    2.03 25 53.00 0.4 True x
8/9/2006 12:35    2.07 28 65.00 3.4 0.6 True x
8/9/2006 12:46    2.06  72.00 3.3 0.6 True x
8/12/2006 10:45    2.80 21 77.00 23.3 4.9 True x
8/20/2006 18:30    1.95 24 25.00 2.1 0.1 True x
8/27/2006 15:05    1.90 23 41.00 1.5 0.2 True x
9/3/2006 10:15    2.00 20 62.00 2.6 0.4 True x
9/7/2006 13:00    2.06 25 38.00 3.3 0.3 True x
9/7/2006 13:10    2.05  36.00 3.2 0.3 True x
9/9/2006 18:40    1.95 20 92.00 2.1 0.5 True x
9/16/2006 14:45    2.30 19 33.00 6.4 0.6 True x
9/24/2006 18:10    1.90 17 50.00 1.5 0.2 True x
10/1/2006 17:40    1.91 17 218.00 1.6 0.9 True x
10/7/2006 18:05    1.90 15 76.00 1.5 0.3 True x
10/14/2006 16:40    1.92 11 24.00 1.7 0.1 True x
10/18/2006 12:41    2.25 13 39.00 5.8 0.6 True x
10/18/2006 12:50    2.25  39.00 5.8 0.6 True x
10/22/2006 15:45    2.27 10 39.00 0.6 True x
10/28/2006 17:30    2.37 10 12.00 7.5 0.3 True x
11/5/2006 13:45    2.45 10 7.00 9.2 0.2 True x
11/11/2006 15:00    2.70 18.00 18.7 0.9 True x
11/18/2006 15:00    2.50 3.00 10.7 0.1 True x
11/26/2006 09:35    2.37 10 6.00 7.5 0.1 True x
12/2/2006 14:30    4.70 11 150.00 176 71.4 True x
12/16/2006 11:40    4.35 33.00 139 12.6 True x
12/22/2006 16:40    4.34 35.00 138 13.1 True x
12/29/2006 14:40    3.54 11.00 69.2 2.2 True x
1/6/2007 15:05    6.33 159.00 384 165.4 True x
1/9/2007 12:41    4.65 28.00 170 12.9 True x
1/9/2007 12:52    4.65  41.00 170 19.0 True x
1/13/2007 12:30    4.15 16.00 120 5.4 True x
3/4/2007 17:20    7.62 370.00 592 592.9 True x
3/11/2007 16:30    5.47 52.00 266 37.4 True x
3/13/2007 11:45    5.50 11 47.00 270 34.3 True x
3/13/2007 11:54    5.50  145.00 270 106.2 True x
3/17/2007 18:20    5.32 30.00 247 20.4 True x
3/24/2007 17:45    12.08 13 777.00 1510 3,171.0 True x
4/1/2007 14:45    14.63 14 3,697.00 2020 20,163.7 True x
4/8/2007 15:30    6.52 58.00 413 65.7 True x
4/10/2007 12:08    6.09 39.00 350 37.2 True x
4/10/2007 12:19    6.08  35.00 348 33.2 True x
4/14/2007 16:00    7.77 84.00 619 140.8 True x
4/21/2007 17:20    5.59 15 43.00 282 33.4 True x
4/28/2007 18:40    11.45 14 489.00 1370 1,811.0 True x
5/5/2007 15:10    6.76 15 116.00 450 141.1 True x
5/13/2007 16:30    4.96 19 55.00 204 30.8 True x
5/19/2007 16:00    4.37 17 31.00 141 12.0 True x
5/23/2007 12:49    4.15 24 33.00 120 10.9 True x
5/23/2007 13:00    4.15  34.00 120 11.2 True x
5/26/2007 17:30    4.00 19 49.00 107 14.2 True x
6/3/2007 17:00    4.50 19 99.00 154 41.2 True x
6/10/2007 17:35    3.65 17 53.00 77.5 11.1 True x
6/17/2007 17:20    3.30 21 42.00 52.2 6.0 True x
6/24/2007 14:55    20.18 17 595.00 4520 7,266.7 True x
6/26/2007 12:24    18.74 26 168.00 3270 1,491.9 True x
6/26/2007 12:41    18.60  113.00 3170 967.3 True x
7/2/2007 13:00    5.51 23 129.00 271 94.6 True x
7/8/2007 16:45    4.23 29 64.00 128 22.2 True x
7/14/2007 15:45    3.70 27 40.00 81.5 8.8 True x
7/21/2007 16:35    3.60 26 28.00 73.7 5.7 True x
7/28/2007 18:20    3.00 28 19.00 33.8 1.8 True x
8/5/2007 13:15    3.58 28 161.00 72.2 31.5 True x
8/12/2007 16:30    2.91 32 31.00 28.9 2.5 True x
8/18/2007 18:45    2.53 27 27.00 11.8 0.9 True x
8/25/2007 19:45    6.77 25 642.00 451 782.0 True x
9/1/2007 18:50    2.60 25 36.00 14.5 1.4 True x
9/8/2007 17:00    2.63 27 20.00 15.7 0.9 True x
9/15/2007 19:15    2.32 27 140.00 6.7 2.5 True x
9/22/2007 16:35    2.28 24 175.00 6.1 2.9 True x
9/30/2007 16:45    2.35 22 28.00 7.2 0.6 True x
10/6/2007 18:30    2.42 24 305.00 8.5 7.0 True x
10/13/2007 16:25    2.35 15 41.00 7.2 0.8 True x
10/20/2007 17:00    3.08 17 81.00 38 8.4 True x
10/27/2007 14:50    2.47 14 13.00 9.7 0.3 True x
11/3/2007 17:05    2.47 10 7.00 9.7 0.2 True x
11/10/2007 15:35    2.65 10 9.00 17 0.5 True x
11/17/2007 16:00    2.75 8.00 21 0.5 True x
11/24/2007 15:00    2.98 6.00 33 0.6 True x
12/2/2007 14:00    2.80 25.00 23 1.6 True x
12/8/2007 11:30    3.00 41.00 34 3.8 True x
12/14/2007 13:00    3.40 15.00 59 2.5 True x
12/21/2007 13:45    3.10 6.00 40 0.7 True x
12/28/2007 16:05    3.40 232.00 59 37.0 True x
1/7/2008 14:00    3.36 24.00 56 3.8 True x
1/10/2008 12:48    7.29 138.00 536 200.6 True x
1/10/2008 13:02    7.28  132.00 534 191.2 True x
1/12/2008 14:00    5.93 53.00 327 46.9 True x
2/17/2008 16:35    21.15 791.00 5960 12,728.8 True x
2/23/2008 10:00    8.53 53.00 763 109.8 True x
3/1/2008 16:00    8.70 282.00 798 609.3 True x
3/6/2008 12:52    7.49 243.00 570 375.5 True x
3/6/2008 13:04    7.48  332.00 568 509.3 True x
3/9/2008 14:33    5.54 70.00 275 52.2 True x
3/15/2008 15:00    5.02 29.00 211 16.6 True x
3/23/2008 12:20    6.70 76.00 440 90.7 True x
4/2/2008 17:00    6.70 13 77.00 440 92.3 True x
4/7/2008 16:50    5.53 14 40.00 274 29.6 True x
4/9/2008 12:48    13.21  786.00 1740 3,694.5 True x
4/9/2008 13:07    13.22  834.00 1740 3,921.7 True x
4/13/2008 11:45    15.36 11 413.00 2160 2,413.2 True x
4/19/2008 12:25    7.97 16 169.00 655 299.5 True x
4/26/2008 17:18    12.18 18 761.00 1530 3,145.2 True x
5/3/2008 18:50    6.64 19 98.00 431 114.9 True x
5/10/2008 17:30    5.34 19 46.00 250 31.5 True x
5/18/2008 12:30    6.35 21 89.00 387 93.3 True x
5/25/2008 16:15    5.35 22 33.00 251 22.9 True x
5/31/2008 10:30    4.93 25 48.00 201 26.2 True x
6/7/2008 18:05    6.78 28 175.00 453 214.5 True x
6/14/2008 11:30    10.70 25 894.00 1220 2,944.9 True x
6/21/2008 13:35    5.59 27 148.00 282 113.4 True x
6/29/2008 17:15    7.88 25 289.00 638 498.1 True x
7/5/2008 18:35    4.98 26 91.00 207 51.0 True x
7/12/2008 18:30    4.40 27 81.00 144 31.9 True x
7/19/2008 17:30    3.70 29 51.00 82 11.3 True x
7/27/2008 17:30    3.45 29 40.00 63 6.9 True x
8/2/2008 20:00    4.03 29 89.00 109 26.2 True x
8/9/2008 16:45    3.07 27 24.00 38 2.5 True x
8/16/2008 13:45    2.97 26 27.00 32 2.4 True x
8/23/2008 15:30    2.75 29 12.00 21 0.7 True x
8/29/2008 18:50    5.56 26 597.00 278 448.3 True x
9/6/2008 16:00    4.71 23 171.00 177 81.9 True x
9/13/2008 13:15    8.75 23 926.00 808 2,020.6 True x
9/20/2008 19:00    6.13 22 115.00 355 110.9 True x
9/23/2008 12:39    5.16 23 72.00 228 44.4 True x
9/23/2008 12:50    5.16  67.00 228 41.6 True x
9/27/2008 14:45    4.45 23 41.00 149 16.8 True x
10/5/2008 17:30    3.98 19 11.00 105 3.3 True x
10/11/2008 17:30    4.69 21 27.00 174 13.0 True x
10/18/2008 11:05    5.23 15 38.00 236 24.6 True x
10/26/2008 17:20    6.25 13 70.00 372 70.6 True x
11/1/2008 17:00    4.86 15 13.00 193 6.8 True x
11/7/2008 11:38    4.66 12 54.00 171 25.1 True x
11/7/2008 11:48    4.66  13.00 171 6.4 True x
11/8/2008 16:30    4.70 12 8.00 176 4.0 True x
11/15/2008 15:25    4.70 10 7.00 176 3.7 True x
11/22/2008 16:00    4.10 23.00 116 7.3 True x
11/29/2008 13:00    4.08 28.00 114 8.8 True x
12/6/2008 11:20    4.23 23.00 128 8.1 True x
12/13/2008 11:40    5.44 16.00 262 11.7 True x
12/28/2008 13:45    21.98 837.00 7780 17,587.1 True x
1/3/2009 11:00    9.44 133.00 950 343.1 True x
1/10/2009 12:00    7.11 50.00 506 68.7 True x
2/10/2009 13:00    5.65 51.00 289 39.9 True x
2/10/2009 14:00    5.67 31.00 292 24.5 True x
2/16/2009 15:35    6.64 82.00 431 95.8 True x
2/22/2009 13:10    5.87 20.00 319 17.8 True x
2/28/2009 11:35    10.34 1,146.00 1140 3,529.7 True x
3/9/2009 15:30    19.60 10 3,734.00 3920 39,521.6 True x
3/12/2009 12:27    23.27 319.00 12400 10,706.1 True x
3/12/2009 12:46    23.17  252.00 12000 8,189.4 True x
3/14/2009 17:20    13.75 12 353.00 1850 1,764.9 True x
3/21/2009 13:30    7.45 15 97.00 563 148.8 True x
3/28/2009 15:49    10.40 12 300.00 1150 934.5 True x
4/4/2009 17:45    8.65 13 124.00 787 264.7 True x
4/11/2009 16:40    10.73 13 249.00 1220 822.5 True x
4/18/2009 12:15    8.78 17 104.00 814 228.8 True x
4/23/2009 12:11    9.46 13 114.00 954 294.6 True x
4/23/2009 12:30    9.45  94.00 952 242.6 True x
4/25/2009 13:30    10.22 19 414.00 1120 1,253.5 True x
5/1/2009 17:15    22.68 20 493.00 10100 13,470.9 True x
5/9/2009 11:30    8.20 20 99.00 698 188.1 True x
5/16/2009 10:30    22.81 18 706.00 10600 20,209.4 True x
5/23/2009 17:35    8.96 24 139.00 852 320.3 True x
5/30/2009 18:00    6.86 23 110.00 465 138.5 True x
6/4/2009 12:47    8.92 21 311.00 843 707.9 True x
6/4/2009 13:01    8.89  319.00 837 722.7 True x
6/6/2009 17:15    6.95 24 141.00 480 182.9 True x
6/13/2009 16:00    8.70 25 237.00 798 511.0 True x
6/21/2009 13:20    12.33 26 549.00 1560 2,314.7 True x
6/27/2009 08:45    6.78 27 129.00 453 158.1 True x
7/5/2009 14:30    12.38 24 1,116.00 1570 4,732.3 True x
7/11/2009 18:50    6.01 27 129.00 338 118.4 True x
7/14/2009 11:40    5.44 25 423.00 262 299.6 True x
7/14/2009 11:51    5.44  392.00 262 277.3 True x
7/20/2009 17:15    5.28 25 81.00 242 53.1 True x
7/27/2009 08:30    4.65 26 63.00 170 29.1 True x
8/2/2009 17:15    4.05 26 37.00 111 11.4 True x
8/5/2009 13:44    7.75  445.00 615 740.1 True x
8/5/2009 13:55    7.75  996.00 615 1,654.0 True x
8/8/2009 19:20    4.48 28 79.00 152 32.6 True x
8/15/2009 18:20    3.77 29 38.00 87.1 8.9 True x
8/22/2009 18:45    7.13 24 250.00 509 344.4 True x
8/29/2009 15:45    16.29 23 507.00 2350 3,220.1 True x
9/7/2009 15:00    4.64 24 57.00 169 26.2 True x
9/13/2009 13:30    4.00 25 78.00 107 22.6 True x
9/20/2009 18:30    3.70 22 117.00 81.5 25.8 True x
9/26/2009 15:00    4.00 23 69.00 107 20.0 True x
9/28/2009 12:00    3.87 12 63.00 95.4 16.3 True x
9/28/2009 12:10    3.85  47.00 93.7 12.0 True x
10/3/2009 14:10    3.95 15 23.00 102 6.5 False x
10/10/2009 17:10    4.25 15 33.00 130 11.7 False x
10/17/2009 16:00    4.77 12 31.00 183 15.3 False x
10/25/2009 14:30    14.10 12 168.00 1920 874.7 False x
10/31/2009 17:00    20.94 17 413.00 5600 6,254.5 False x
11/7/2009 14:35    8.04 15 56.00 668 101.7 False x
11/14/2009 16:15    6.97 12 45.00 483 59.7 False x
11/19/2009 12:31    21.55 151.00 6700 2,736.6 False x
11/19/2009 12:50    21.55  134.00 6700 2,425.2 False x
11/21/2009 11:55    15.18 11 137.00 2120 787.4 False x
11/30/2009 11:30    8.62 10 48.00 781 103.3 False x
12/7/2009 16:25    6.77 65.00 451 80.2 False x
12/13/2009 15:55    7.43 48.00 559 73.6 False x
12/19/2009 15:20    6.70 54.00 440 64.9 False x
12/26/2009 11:00    21.44 911.00 6490 15,976.7 False x
1/2/2010 16:30    7.45 26.00 563 39.9 False x
1/24/2010 15:00    20.97 1,148.00 5650 17,523.2 False x
2/1/2010 13:15    8.58 65.00 772 135.7 False x
2/4/2010 11:27    7.44 99.00 558 150.5 False x
2/4/2010 11:38    7.44 86.00 558 130.4 False x
2/7/2010 14:15    6.67 55.00 411 61.6 False x
2/13/2010 15:40    6.51 67.00 384 70.2 False x
2/20/2010 13:50    5.89 38.00 288 29.6 False x
2/27/2010 13:00    6.14 56.00 325 49.2 False x
3/6/2010 14:20    7.74 116.00 612 192.4 False x
3/13/2010 11:00    20.80 1,582.00 5290 22,604.9 False x
3/14/2010 14:37    23.74  839.00 15600 35,367.6 False x
3/15/2010 11:45    21.64 214.00 7320 4,245.5 False x
3/15/2010 12:00    21.64  223.00 7320 4,420.1 False x
3/19/2010 17:00    10.55 13 237.00 1210 776.8 False x
3/27/2010 15:30    9.75 11 121.00 1020 335.5 False x
4/5/2010 17:55    12.62 17 371.00 1760 1,763.7 False x
4/11/2010 12:15    8.00 18 113.00 660 201.9 False x
4/17/2010 10:30    7.08 19 64.00 486 84.7 False x
4/25/2010 14:15    20.55 18 1,591.00 4790 20,587.4 False x
4/26/2010 12:19    20.90 14 622.00 5510 9,261.9 False x
4/26/2010 12:35    20.08  617.00 4510 7,518.8 False x
5/2/2010 10:00    8.00 18 122.00 660 217.9 False x
5/8/2010 17:50    11.38 15 725.00 1420 2,783.2 False x
5/15/2010 12:45    23.49 18 1,053.00 14300 40,660.5 False x
5/22/2010 10:20    19.70 20 722.00 4340 8,468.9 False x
5/29/2010 16:10    8.18 25 139.00 694 260.6 False x
6/5/2010 16:10    13.80 24 1,348.00 2120 7,718.4 False x
6/9/2010 11:53    12.00 20 216.00 1590 929.5 False x
6/9/2010 12:09    11.98  213.00 1580 910.0 False x
6/13/2010 15:15    20.56 25 856.00 4810 11,118.0 False x
6/19/2010 13:50    19.52 25 1,640.00 4270 18,911.7 False x
6/26/2010 15:10    21.20 28 151.00 6190 2,538.4 False x
7/3/2010 19:30    7.62 26 133.00 591 213.4 False x
7/10/2010 18:00    20.70 29 131.00 5090 1,805.0 False x
7/17/2010 19:30    7.18 28 135.00 506 185.4 False x
7/22/2010 12:45    23.53 26 72.00 14500 2,845.6 False x
7/22/2010 13:05    23.51  72.00 14400 2,820.7 False x
7/25/2010 13:00    17.95 28 532.00 3610 5,192.4 False x
7/31/2010 20:00    7.46 27 162.00 562 246.0 False x
8/8/2010 16:10    5.39 29 80.00 221 48.2 False x
8/14/2010 17:05    14.39 28 1,596.00 2310 9,960.4 False x
8/21/2010 16:30    9.20 28 238.00 900 579.1 False x
8/28/2010 19:10    4.71 26 60.00 145 23.5 False x
8/30/2010 12:58    4.53 25 92.00 128 32.0 False x
8/30/2010 13:14    4.53  48.00 128 16.6 False x
9/6/2010 09:00    6.67 22 107.00 411 119.6 False x
9/12/2010 15:00    11.36 23 272.00 1410 1,039.1 False x
9/18/2010 12:35    5.47 23 55.00 231 34.4 False x
9/26/2010 17:10    11.70 20 352.00 1510 1,438.8 False x
10/4/2010 16:50    5.93 17 38.00 293 30.6 False x
10/10/2010 12:50    5.30 19 25.00 210 14.4 False x
10/13/2010 12:56    5.12 17 24.00 188 12.6 False x
10/13/2010 13:07    5.12  24.00 188 12.4 False x
10/16/2010 18:05    4.90 17 10.00 164 4.8 False x
10/23/2010 17:15    4.92 17 28.00 166 12.8 False x
10/30/2010 14:00    5.80 15 18.00 275 14.0 False x
11/6/2010 16:55    4.55 13 12.00 129 4.5 False x
11/13/2010 13:10    4.86 14 16.00 160 7.0 False x
11/21/2010 16:35    4.62 11 56.00 136 20.6 False x
11/27/2010 16:00    4.75 11.00 149 4.5 False x
11/30/2010 11:53    4.80 46.00 154 19.4 False x
11/30/2010 12:04    4.80  41.00 154 17.3 False x
12/5/2010 15:40    4.47 46.00 122 15.2 False x
1/3/2011 14:55    7.03 57.00 477 74.7 False x
1/6/2011 12:33    6.22 41.00 337 37.8 False x
1/6/2011 12:43    6.22  27.00 337 24.6 False x
2/19/2011 16:40    15.15 414.00 2570 2,874.6 False x
2/22/2011 11:43    11.15 208.00 1360 767.4 False x
2/22/2011 11:59    11.13  200.00 1360 737.2 False x
2/28/2011 11:50    19.54 1,651.00 4270 19,035.6 False x
3/6/2011 15:45    10.17 151.00 1120 457.0 False x
3/14/2011 11:30    7.27 48.00 523 68.4 False x
3/20/2011 16:45    6.09 16 64.00 317 55.0 False x
3/27/2011 15:00    5.60 10 19.00 248 13.4 False x
3/28/2011 12:26    5.47 21.00 231 13.3 False x
3/28/2011 12:39    5.47  19.00 231 12.3 False x
4/2/2011 17:35    5.32 15 84.00 212 48.6 False x
4/9/2011 16:55    6.07 19 35.00 314 30.2 False x
4/16/2011 18:30    5.00 14 68.00 175 32.3 False x
4/23/2011 18:40    19.84 14 1,162.00 4410 13,847.8 False x
4/30/2011 17:15    9.61 17 124.00 989 331.4 False x
5/7/2011 16:25    6.73 21 75.00 422 85.5 False x
5/10/2011 11:22    6.17 23 62.00 329 55.2 False x
5/10/2011 11:32    6.16  133.00 328 118.7 False x
5/15/2011 16:00    7.28 15 116.00 525 165.1 False x
5/22/2011 12:15    6.30 24 98.00 350 92.7 False x
5/28/2011 17:00    21.85 19 279.00 7920 5,969.3 False x
6/4/2011 15:30    10.29 25 297.00 1150 922.6 False x
6/11/2011 08:20    15.34 23 1,557.00 2630 11,061.1 False x
6/18/2011 19:45    20.44 24 124.00 4670 1,575.1 False x
6/25/2011 16:15    9.84 22 239.00 1040 673.2 False x
6/28/2011 13:19    21.87 23 185.00 7980 3,993.8 False x
6/28/2011 13:35    21.87  188.00 7980 4,064.3 False x
9/16/2013 10:55    2.66 17 68.00 13 2.4 False x
9/23/2013 10:30    3.16 17 47.00 34 4.3 False x
9/30/2013 10:35    2.72 17 30.00 16 1.3 False x
10/7/2013 10:30    3.05 15 20.00 29 1.6 False x
10/14/2013 10:45    2.90 13 25.00 24 1.7 False x
10/21/2013 10:30    3.20 10 19.00 36 1.9 False x
10/28/2013 11:00    2.58 9.00 10 0.3 False x
11/4/2013 10:25    3.30 18.00 41 2.1 False x
11/11/2013 10:25    2.94 18.00 25 1.2 False x
11/18/2013 10:40    2.90 17.00 24 1.1 False x
1/13/2014 14:55    13.14 122.00 1920 637.5 False x
3/15/2014 13:15    9.89 249.00 1050 707.8 False x
3/24/2014 11:20    4.75 19.00 149 7.9 False x
3/31/2014 10:50    4.40 21.00 116 6.7 False x
4/7/2014 11:10    5.23 54.00 201 29.7 False x
4/15/2014 11:55    4.73 25.00 147 10.1 False x
4/21/2014 10:15    3.99 16 40.00 83 9.2 False x
4/25/2014 10:05    4.00 15 55.00 84 12.5 False x
4/25/2014 11:20    4.00 16 40.00 84 9.3 False x
4/28/2014 10:30    13.94 15 3,864.00 2160 22,536.6 False x
5/5/2014 10:15    4.55 14 77.00 129 27.1 False x
5/12/2014 09:55    4.16 22 112.00 96 29.3 False x
5/19/2014 10:00    4.23 15 77.00 102 21.4 False x
5/26/2014 10:15    3.57 22 90.00 55 13.4 False x
6/2/2014 09:55    3.38 24 97.00 45 11.9 False x
6/9/2014 09:45    12.70 19 495.00 1790 2,396.6 False x
6/16/2014 10:15    5.57 22 97.00 244 64.5 False x
6/23/2014 10:25    5.97 23 230.00 299 186.1 False x
6/30/2014 10:00    4.57 25 78.00 131 27.7 False x
7/7/2014 10:10    4.45 25 60.00 120 19.5 False x
7/14/2014 09:45    10.05 24 994.00 1090 2,926.3 False x
7/21/2014 09:35    3.80 23 182.00 70 34.5 False x
7/28/2014 10:05    4.21 22 61.00 100 16.6 False x
8/4/2014 10:20    3.61 23 54.00 58 8.6 False x
8/11/2014 09:50    7.45 21 722.00 560 1,091.8 False x
8/18/2014 10:25    4.24 21 74.00 102 20.5 False x
8/25/2014 10:00    4.34 22 114.00 111 34.2 False x
9/1/2014 10:00    3.45 25 33.00 49 4.5 False x
9/8/2014 10:10    2.97 19 60.00 26 4.3 False x
9/16/2014 10:25    8.03 14 93.00 666 168.8 False x
9/22/2014 10:10    5.45 16 45.00 228 27.7 False x
9/29/2014 10:00    4.43 18 96.00 119 31.2 False x
10/2/2014 12:06    4.64 19 55.00 138 20.6 False x
10/2/2014 13:38    4.69 19 47.00 143 18.3 False x
10/6/2014 09:55    8.60 11 77.00 776 163.1 False x
10/14/2014 10:20    16.55 14 723.00 3070 5,994.6 False x
10/20/2014 10:15    7.17 12 38.00 504 52.2 False x
10/27/2014 10:20    5.77 14 21.00 271 15.5 False x
11/3/2014 09:50    4.97 74.00 172 34.6 False x
11/10/2014 10:00    4.85 75.00 159 32.2 False x
11/25/2014 11:05    6.01 49.00 305 40.4 False x
12/9/2014 12:55    4.55 111.00 129 38.9 False x
12/15/2014 10:55    4.44 82.00 119 26.4 False x
12/23/2014 11:10    4.81 76.00 155 32.0 False x
12/29/2014 14:00    4.85 34.00 159 14.8 False x
3/16/2015 10:00    6.56 28.00 392 30.0 False x
3/23/2015 10:55    5.28 25.00 207 14.4 False x
3/30/2015 10:20    5.05 34.00 181 17.1 False x
4/2/2015 15:42    5.01 24.00 176 11.8 False x
4/2/2015 17:12    5.01 34.00 176 16.6 False x
4/6/2015 10:30    4.61 12 37.00 135 13.8 False x
4/13/2015 10:30    4.61 14 24.00 135 9.0 False x
4/21/2015 10:50    5.07 13 42.00 183 21.1 False x
4/27/2015 11:00    5.76 12 47.00 269 34.7 False x
5/4/2015 13:15    4.77 20 124.00 151 50.7 False x
5/5/2015 14:05    12.95 21 1,862.00 1860 9,352.0 False x
5/5/2015 15:14    12.85 21 1,989.00 1830 9,829.2 False x
5/11/2015 13:20    7.77 19 144.00 618 240.7 False x
5/18/2015 10:40    6.27 20 122.00 345 113.9 False x
5/25/2015 10:50    5.44 20 75.00 227 46.3 False x
6/1/2015 10:30    6.18 17 127.00 331 114.0 False x
6/8/2015 09:55    17.21 21 2,478.00 3320 22,213.5 False x
6/15/2015 10:05    13.26 22 316.00 1950 1,665.4 False x
6/18/2015 10:52    14.70 22 295.00 2410 1,920.1 False x
6/18/2015 11:43    14.47 22 387.00 2340 2,448.4 False x
6/22/2015 10:05    19.49 21 419.00 4250 4,815.0 False x
6/29/2015 10:15    22.60 21 68.00 7960 1,477.7 False x
7/6/2015 09:45    7.73 22 126.00 611 208.3 False x
7/13/2015 10:10    21.58 24 151.00 6200 2,539.4 False x
7/21/2015 10:40    19.59 23 255.00 4300 2,964.1 False x
7/27/2015 10:35    7.78 25 181.00 620 303.8 False x
8/3/2015 10:10    5.61 25 93.00 249 63.1 False x
8/10/2015 10:35    15.13 23 1,407.00 2560 9,729.7 False x
8/17/2015 09:15    5.14 25 100.00 191 51.8 False x
8/21/2015 12:00    5.66 22 150.00 256 103.7 False x
8/21/2015 12:48    5.64 23 118.00 253 81.1 False x
8/24/2015 10:25    4.75 20 73.00 149 29.8 False x
8/31/2015 10:40    4.22 23 102.00 101 27.9 False x
9/7/2015 10:15    3.74 25 81.00 66 14.5 False x
9/14/2015 10:15    3.67 18 70.00 61 11.6 False x
9/21/2015 10:00    5.10 18 114.00 186 57.3 False x
9/28/2015 10:10    3.68 20 53.00 62 8.9 False x
10/1/2015 10:13    3.72 16 33.00 65 5.9 False x
10/1/2015 11:20    3.72 16 25.00 65 4.5 False x
10/5/2015 10:05    3.51 14 74.00 52 10.4 False x
10/12/2015 09:40    3.61 16 71.00 58 11.2 False x
10/20/2015 09:45    3.32 12 68.00 42 7.7 False x
10/26/2015 10:15    3.84 11 17.00 72 3.4 False x
11/2/2015 10:15    4.71 10 34.00 145 13.3 False x
11/9/2015 10:20    4.03 12.00 86 2.9 False x
11/18/2015 11:05    19.05 12 1,125.00 4060 12,341.0 False x
11/23/2015 10:25    10.04 82.00 1020 227.6 False x
12/1/2015 10:45    16.32 226.00 2890 1,771.0 False x
12/7/2015 10:20    8.48 55.00 687 102.9 False x
12/15/2015 11:10    19.88 259.00 4150 2,903.6 False x
12/21/2015 10:15    8.51 112.00 693 211.2 False x
12/29/2015 10:30    22.62 173.00 7350 3,442.6 False x
1/4/2016 13:00    9.56 75.00 908 184.5 False x
1/4/2016 16:49    9.42 70.00 877 166.2 False x
1/4/2016 17:20    9.41 80.00 874 189.7 False x
1/14/2016 11:05    7.27 27.00 476 36.0 False x
2/4/2016 12:30    7.34 206.00 486 271.1 False x
2/20/2016 09:50    6.14 33.00 314 28.8 False x
2/29/2016 10:15    5.19 47.00 198 25.2 False x
3/7/2016 10:15    4.89 61.00 165 27.5 False x
3/14/2016 11:00    5.37 11 24.00 219 14.7 False x
3/21/2016 10:55    5.54 79.00 239 51.4 False x
3/28/2016 10:55    5.39 68.00 221 40.7 False x
4/1/2016 12:09    8.03 12 450.00 604 734.0 False x
4/1/2016 13:05    7.96 12 410.00 591 654.7 False x
4/4/2016 10:35    5.82 10 34.00 274 25.4 False x
4/11/2016 10:15    5.22 112.00 201 60.9 False x
4/18/2016 10:45    4.75 19 33.00 151 13.8 False x
4/25/2016 10:10    5.05 19 45.00 183 22.4 False x
5/2/2016 11:55    7.68 12 116.00 543 170.6 False x
5/9/2016 10:45    5.49 18 49.00 234 31.3 False x
5/16/2016 10:20    7.33 14 92.00 485 120.7 False x
5/23/2016 17:30    5.54 21 92.00 239 59.4 False x
5/31/2016 17:35    6.61 24 137.00 377 140.3 False x
6/6/2016 17:30    5.92 25 134.00 287 104.0 False x
6/13/2016 19:05    4.75 28 88.00 151 35.9 False x
6/20/2016 09:25    4.12 28 75.00 95 19.3 False x
6/28/2016 17:30    3.63 28 59.00 57 9.2 False x
7/5/2016 17:30    3.64 26 49.00 58 7.8 False x
7/8/2016 11:15    4.23 26 75.00 104 21.1 False x
7/8/2016 12:13    4.20 26 70.00 101 19.2 False x
7/11/2016 19:00    3.38 28 189.00 41 21.0 False x
7/18/2016 17:30    3.15 30 62.00 29 4.9 False x
7/25/2016 17:35    4.82 30 148.00 158 63.5 False x
8/1/2016 17:40    3.20 27 375.00 31 31.5 False x
8/8/2016 17:40    3.85 26 123.00 74 24.7 False x
8/15/2016 13:15    4.92 24 152.00 168 69.0 False x
8/22/2016 10:30    3.14 22 299.00 28 22.6 False x
8/25/2016 13:20    4.62 25 324.00 138 120.9 False x
8/25/2016 14:11    4.65 25 458.00 141 174.6 False x
8/29/2016 10:15    6.94 25 253.00 425 290.4 False x
9/5/2016 10:30    3.42 23 256.00 43 29.7 False x
9/12/2016 10:20    5.51 20 122.00 236 78.0 False x
9/19/2016 09:55    4.80 21 185.00 156 78.1 False x
9/26/2016 10:45    3.64 21 281.00 58 44.1 False x
10/3/2016 10:10    3.43 22 1,354.00 43 157.3 False x
10/10/2016 10:45    4.71 15 48.00 147 19.3 False x
10/17/2016 10:05    3.95 19 60.00 82 13.5 False x
10/24/2016 10:35    3.65 12 37.00 58 5.8 False x
10/24/2016 13:06    3.65 14 16.00 58 2.6 False x
10/24/2016 14:02    3.65 14 21.00 58 3.4 False x
10/31/2016 10:05    3.82 13 141.00 72 27.5 False x
11/7/2016 10:30    5.84 11 38.00 277 28.7 False x
11/14/2016 10:10    4.56 17.00 133 6.1 False x
11/21/2016 10:35    4.09 14.00 93 3.6 False x
11/28/2016 10:15    4.05 16.00 90 3.9 False x
12/5/2016 11:40    3.93 43.00 81 9.4 False x
1/20/2017 12:37    7.63 162.00 534 233.8 False x
1/20/2017 13:23    7.61 158.00 530 227.2 False x
1/21/2017 10:55    7.60 136.00 529 195.1 False x
1/30/2017 11:30    5.18 -1 14.00 197 7.9 False x
3/29/2017 14:20    4.47 11 17.00 124 5.9 False x
3/29/2017 15:07    4.49 11 19.00 127 6.5 False x

Data Set Parameters and Explanation

Help with downloading, csv files, printing, and more





Illinois State Water Survey

2204 Griffith Dr
Champaign, IL 61820-7463
217-244-5459
info@isws.illinois.edu

Terms of use. Email the Web Administrator with questions or comments.

© 2017 University of Illinois Board of Trustees. All rights reserved.
For permissions information, contact the Illinois State Water Survey.
Site Map